Time,TemperatureF,DewpointF,PressureIn,WindDirection,WindDirectionDegrees,WindSpeedMPH,WindSpeedGustMPH,Humidity,HourlyPrecipIn,Conditions,Clouds,dailyrainin,SoftwareType,DateUTC
2013-01-22 00:00:00,29.3,15.5,30.24,WNW,288,0.0,0.0,56,0.00,,,0.01,Wunderground v.1.15,2013-01-22 05:00:00,
2013-01-22 00:07:00,29.2,15.4,30.23,WNW,287,0.0,0.0,56,0.00,,,0.00,Wunderground v.1.15,2013-01-22 05:07:00,
2013-01-22 00:08:00,29.1,15.3,30.23,WNW,288,0.0,0.0,56,0.00,,,0.00,Wunderground v.1.15,2013-01-22 05:08:00,
2013-01-22 00:09:00,29.1,15.3,30.23,WNW,288,0.0,0.0,56,0.00,,,0.00,Wunderground v.1.15,2013-01-22 05:09:00,
2013-01-22 00:10:00,29.0,15.7,30.23,WNW,287,0.0,0.0,57,0.00,,,0.00,Wunderground v.1.15,2013-01-22 05:10:00,
2013-01-22 00:13:00,29.0,15.7,30.23,WNW,287,0.0,0.0,57,0.00,,,0.00,Wunderground v.1.15,2013-01-22 05:13:00,
2013-01-22 00:16:00,29.0,15.7,30.23,WNW,288,0.0,0.0,57,0.00,,,0.00,Wunderground v.1.15,2013-01-22 05:16:00,
2013-01-22 00:20:00,28.9,15.2,30.23,WNW,288,0.0,0.0,56,0.00,,,0.00,Wunderground v.1.15,2013-01-22 05:20:00,
2013-01-22 00:21:00,28.9,15.2,30.23,WNW,288,0.0,0.0,56,0.00,,,0.00,Wunderground v.1.15,2013-01-22 05:21:00,
2013-01-22 00:22:00,28.9,15.2,30.23,WNW,288,1.0,1.0,56,0.00,,,0.00,Wunderground v.1.15,2013-01-22 05:22:00,
2013-01-22 00:26:00,29.0,15.7,30.23,WNW,288,1.0,1.0,57,0.00,,,0.00,Wunderground v.1.15,2013-01-22 05:26:00,
2013-01-22 00:31:00,29.0,15.7,30.22,WNW,288,0.0,1.0,57,0.00,,,0.00,Wunderground v.1.15,2013-01-22 05:31:00,
2013-01-22 00:33:00,29.0,16.1,30.23,WNW,287,0.0,1.0,58,0.00,,,0.00,Wunderground v.1.15,2013-01-22 05:33:00,
2013-01-22 00:39:00,28.9,15.6,30.22,WNW,287,0.0,1.0,57,0.00,,,0.00,Wunderground v.1.15,2013-01-22 05:39:00,
2013-01-22 00:45:00,28.8,15.1,30.22,WNW,287,0.0,0.0,56,0.00,,,0.00,Wunderground v.1.15,2013-01-22 05:45:00,
2013-01-22 00:47:00,28.7,15.4,30.22,WNW,287,0.0,0.0,57,0.00,,,0.00,Wunderground v.1.15,2013-01-22 05:47:00,
2013-01-22 00:48:00,28.7,15.4,30.22,WNW,287,0.0,0.0,57,0.00,,,0.00,Wunderground v.1.15,2013-01-22 05:48:00,
2013-01-22 00:49:00,28.7,15.4,30.22,WNW,287,1.0,1.0,57,0.00,,,0.00,Wunderground v.1.15,2013-01-22 05:49:00,
2013-01-22 00:53:00,28.4,15.5,30.22,WNW,287,0.0,1.0,58,0.00,,,0.00,Wunderground v.1.15,2013-01-22 05:53:00,
2013-01-22 00:55:00,28.3,15.4,30.22,WNW,288,0.0,1.0,58,0.00,,,0.00,Wunderground v.1.15,2013-01-22 05:55:00,
2013-01-22 00:57:00,28.3,15.8,30.22,WNW,288,0.0,1.0,59,0.00,,,0.00,Wunderground v.1.15,2013-01-22 05:57:00,
2013-01-22 00:58:00,28.3,16.2,30.22,WNW,287,0.0,1.0,60,0.00,,,0.00,Wunderground v.1.15,2013-01-22 05:58:00,
2013-01-22 00:59:00,28.2,16.1,30.22,WNW,288,0.0,0.0,60,0.00,,,0.00,Wunderground v.1.15,2013-01-22 05:59:00,
2013-01-22 01:02:00,28.1,16.4,30.22,WNW,288,1.0,1.0,61,0.00,,,0.00,Wunderground v.1.15,2013-01-22 06:02:00,
2013-01-22 01:03:00,28.0,16.3,30.22,WNW,288,1.0,1.0,61,0.00,,,0.00,Wunderground v.1.15,2013-01-22 06:03:00,
2013-01-22 01:09:00,27.5,16.2,30.23,WNW,287,0.0,1.0,62,0.00,,,0.00,Wunderground v.1.15,2013-01-22 06:09:00,
2013-01-22 01:10:00,27.5,16.5,30.23,WNW,288,0.0,0.0,63,0.00,,,0.00,Wunderground v.1.15,2013-01-22 06:10:00,
2013-01-22 01:14:00,27.4,16.4,30.23,WNW,287,0.0,2.0,63,0.00,,,0.00,Wunderground v.1.15,2013-01-22 06:14:00,
2013-01-22 01:15:00,27.4,16.4,30.23,WNW,288,0.0,2.0,63,0.00,,,0.00,Wunderground v.1.15,2013-01-22 06:15:00,
2013-01-22 01:19:00,27.4,15.7,30.23,WNW,287,0.0,2.0,61,0.00,,,0.00,Wunderground v.1.15,2013-01-22 06:19:00,
2013-01-22 01:21:00,27.4,16.4,30.22,WNW,288,0.0,0.0,63,0.00,,,0.00,Wunderground v.1.15,2013-01-22 06:21:00,
2013-01-22 01:26:00,27.4,15.3,30.22,WNW,287,1.0,2.0,60,0.00,,,0.00,Wunderground v.1.15,2013-01-22 06:26:00,
2013-01-22 01:27:00,27.4,15.7,30.23,WNW,288,0.0,2.0,61,0.00,,,0.00,Wunderground v.1.15,2013-01-22 06:27:00,
2013-01-22 01:30:00,27.5,16.5,30.24,WNW,288,2.0,2.0,63,0.00,,,0.00,Wunderground v.1.15,2013-01-22 06:30:00,
2013-01-22 01:32:00,27.5,16.2,30.24,WNW,288,0.0,2.0,62,0.00,,,0.00,Wunderground v.1.15,2013-01-22 06:32:00,
2013-01-22 01:35:00,27.5,16.5,30.23,WNW,287,0.0,2.0,63,0.00,,,0.00,Wunderground v.1.15,2013-01-22 06:35:00,
2013-01-22 01:39:00,27.5,15.8,30.23,WNW,288,0.0,2.0,61,0.00,,,0.00,Wunderground v.1.15,2013-01-22 06:39:00,
2013-01-22 01:41:00,27.6,15.9,30.23,WNW,287,0.0,1.0,61,0.00,,,0.00,Wunderground v.1.15,2013-01-22 06:41:00,
2013-01-22 01:43:00,27.6,15.5,30.23,WNW,288,1.0,1.0,60,0.00,,,0.00,Wunderground v.1.15,2013-01-22 06:43:00,
2013-01-22 01:46:00,27.7,16.0,30.23,WNW,288,0.0,2.0,61,0.00,,,0.00,Wunderground v.1.15,2013-01-22 06:46:00,
2013-01-22 01:50:00,27.8,16.1,30.23,WNW,288,0.0,1.0,61,0.00,,,0.00,Wunderground v.1.15,2013-01-22 06:50:00,
2013-01-22 01:52:00,27.8,15.7,30.24,WNW,288,0.0,1.0,60,0.00,,,0.00,Wunderground v.1.15,2013-01-22 06:52:00,
2013-01-22 01:53:00,27.8,15.7,30.24,WNW,287,0.0,1.0,60,0.00,,,0.00,Wunderground v.1.15,2013-01-22 06:53:00,
2013-01-22 01:55:00,27.8,15.7,30.24,WNW,288,0.0,1.0,60,0.00,,,0.00,Wunderground v.1.15,2013-01-22 06:55:00,
2013-01-22 01:57:00,27.7,15.6,30.24,WNW,288,0.0,1.0,60,0.00,,,0.00,Wunderground v.1.15,2013-01-22 06:57:00,
2013-01-22 02:00:00,27.6,15.9,30.24,WNW,288,0.0,0.0,61,0.00,,,0.00,Wunderground v.1.15,2013-01-22 07:00:00,
2013-01-22 02:02:00,27.5,15.8,30.24,WNW,288,1.0,2.0,61,0.00,,,0.00,Wunderground v.1.15,2013-01-22 07:02:00,
2013-01-22 02:03:00,27.5,15.8,30.24,WNW,288,1.0,2.0,61,0.00,,,0.00,Wunderground v.1.15,2013-01-22 07:03:00,
2013-01-22 02:05:00,27.4,15.3,30.24,WNW,287,1.0,2.0,60,0.00,,,0.00,Wunderground v.1.15,2013-01-22 07:05:00,
2013-01-22 02:07:00,27.4,15.7,30.24,WNW,288,0.0,2.0,61,0.00,,,0.00,Wunderground v.1.15,2013-01-22 07:07:00,
2013-01-22 02:08:00,27.4,15.7,30.24,WNW,287,0.0,2.0,61,0.00,,,0.00,Wunderground v.1.15,2013-01-22 07:08:00,
2013-01-22 02:10:00,27.2,15.1,30.24,WNW,287,1.0,1.0,60,0.00,,,0.00,Wunderground v.1.15,2013-01-22 07:10:00,
2013-01-22 02:11:00,27.2,15.1,30.24,WNW,288,0.0,1.0,60,0.00,,,0.00,Wunderground v.1.15,2013-01-22 07:11:00,
2013-01-22 02:13:00,27.3,14.8,30.24,WNW,288,0.0,3.0,59,0.00,,,0.00,Wunderground v.1.15,2013-01-22 07:13:00,
2013-01-22 02:15:00,27.4,14.5,30.24,WNW,288,2.0,3.0,58,0.00,,,0.00,Wunderground v.1.15,2013-01-22 07:15:00,
2013-01-22 02:16:00,27.4,14.5,30.24,WNW,288,0.0,3.0,58,0.00,,,0.00,Wunderground v.1.15,2013-01-22 07:16:00,
2013-01-22 02:18:00,27.5,14.6,30.24,WNW,288,0.0,3.0,58,0.00,,,0.00,Wunderground v.1.15,2013-01-22 07:18:00,
2013-01-22 02:20:00,27.5,14.6,30.24,WNW,288,0.0,1.0,58,0.00,,,0.00,Wunderground v.1.15,2013-01-22 07:20:00,
2013-01-22 02:22:00,27.4,14.5,30.24,WNW,287,0.0,1.0,58,0.00,,,0.00,Wunderground v.1.15,2013-01-22 07:22:00,
2013-01-22 02:23:00,27.4,14.5,30.24,WNW,288,0.0,1.0,58,0.00,,,0.00,Wunderground v.1.15,2013-01-22 07:23:00,
2013-01-22 02:25:00,27.4,14.9,30.24,WNW,288,0.0,1.0,59,0.00,,,0.00,Wunderground v.1.15,2013-01-22 07:25:00,
2013-01-22 02:27:00,27.4,14.5,30.24,WNW,288,0.0,1.0,58,0.00,,,0.00,Wunderground v.1.15,2013-01-22 07:27:00,
2013-01-22 02:28:00,27.2,14.4,30.24,WNW,288,0.0,1.0,58,0.00,,,0.00,Wunderground v.1.15,2013-01-22 07:28:00,
2013-01-22 02:31:00,27.1,14.3,30.24,WNW,287,0.0,0.0,58,0.00,,,0.00,Wunderground v.1.15,2013-01-22 07:31:00,
2013-01-22 02:33:00,27.1,14.3,30.24,WNW,287,0.0,0.0,58,0.00,,,0.00,Wunderground v.1.15,2013-01-22 07:33:00,
2013-01-22 02:36:00,26.9,14.1,30.24,WNW,288,0.0,0.0,58,0.00,,,0.00,Wunderground v.1.15,2013-01-22 07:36:00,
2013-01-22 02:38:00,26.9,14.1,30.24,WNW,287,0.0,0.0,58,0.00,,,0.00,Wunderground v.1.15,2013-01-22 07:38:00,
2013-01-22 02:39:00,26.9,14.1,30.24,WNW,287,0.0,0.0,58,0.00,,,0.00,Wunderground v.1.15,2013-01-22 07:39:00,
2013-01-22 02:41:00,26.7,13.9,30.24,WNW,288,0.0,0.0,58,0.00,,,0.00,Wunderground v.1.15,2013-01-22 07:41:00,
2013-01-22 02:43:00,26.7,13.9,30.24,WNW,287,0.0,0.0,58,0.00,,,0.00,Wunderground v.1.15,2013-01-22 07:43:00,
2013-01-22 02:44:00,26.7,13.9,30.24,WNW,287,0.0,0.0,58,0.00,,,0.00,Wunderground v.1.15,2013-01-22 07:44:00,
2013-01-22 02:46:00,26.6,14.2,30.24,WNW,288,0.0,0.0,59,0.00,,,0.00,Wunderground v.1.15,2013-01-22 07:46:00,
2013-01-22 02:48:00,26.5,14.1,30.24,WNW,288,0.0,0.0,59,0.00,,,0.00,Wunderground v.1.15,2013-01-22 07:48:00,
2013-01-22 02:49:00,26.6,14.6,30.24,WNW,287,0.0,1.0,60,0.00,,,0.00,Wunderground v.1.15,2013-01-22 07:49:00,
2013-01-22 02:52:00,26.5,14.1,30.24,WNW,288,0.0,0.0,59,0.00,,,0.00,Wunderground v.1.15,2013-01-22 07:52:00,
2013-01-22 02:53:00,26.5,14.1,30.25,WNW,287,0.0,0.0,59,0.00,,,0.00,Wunderground v.1.15,2013-01-22 07:53:00,
2013-01-22 02:54:00,26.4,14.0,30.25,WNW,287,0.0,0.0,59,0.00,,,0.00,Wunderground v.1.15,2013-01-22 07:54:00,
2013-01-22 02:57:00,26.3,13.9,30.25,WNW,288,0.0,0.0,59,0.00,,,0.00,Wunderground v.1.15,2013-01-22 07:57:00,
2013-01-22 02:58:00,26.3,13.9,30.24,WNW,288,0.0,0.0,59,0.00,,,0.00,Wunderground v.1.15,2013-01-22 07:58:00,
2013-01-22 03:00:00,26.3,13.5,30.25,WNW,288,0.0,0.0,58,0.00,,,0.00,Wunderground v.1.15,2013-01-22 08:00:00,
2013-01-22 03:02:00,26.3,14.3,30.25,WNW,287,0.0,0.0,60,0.00,,,0.00,Wunderground v.1.15,2013-01-22 08:02:00,
2013-01-22 03:04:00,26.3,13.9,30.25,WNW,288,0.0,0.0,59,0.00,,,0.00,Wunderground v.1.15,2013-01-22 08:04:00,
2013-01-22 03:05:00,26.3,13.9,30.25,WNW,287,0.0,0.0,59,0.00,,,0.00,Wunderground v.1.15,2013-01-22 08:05:00,
2013-01-22 03:06:00,26.3,13.9,30.25,WNW,288,0.0,1.0,59,0.00,,,0.00,Wunderground v.1.15,2013-01-22 08:06:00,
2013-01-22 03:08:00,26.3,13.5,30.25,WNW,287,0.0,1.0,58,0.00,,,0.00,Wunderground v.1.15,2013-01-22 08:08:00,
2013-01-22 03:10:00,26.4,13.2,30.25,WNW,288,0.0,0.0,57,0.00,,,0.00,Wunderground v.1.15,2013-01-22 08:10:00,
2013-01-22 03:11:00,26.5,13.3,30.24,WNW,288,0.0,0.0,57,0.00,,,0.00,Wunderground v.1.15,2013-01-22 08:11:00,
2013-01-22 03:13:00,26.5,13.7,30.25,WNW,288,1.0,1.0,58,0.00,,,0.00,Wunderground v.1.15,2013-01-22 08:13:00,
2013-01-22 03:15:00,26.6,13.8,30.25,WNW,288,0.0,1.0,58,0.00,,,0.00,Wunderground v.1.15,2013-01-22 08:15:00,
2013-01-22 03:16:00,26.6,13.8,30.25,WNW,288,0.0,1.0,58,0.00,,,0.00,Wunderground v.1.15,2013-01-22 08:16:00,
2013-01-22 03:18:00,26.6,13.8,30.25,WNW,288,0.0,1.0,58,0.00,,,0.00,Wunderground v.1.15,2013-01-22 08:18:00,
2013-01-22 03:20:00,26.6,13.8,30.25,WNW,288,0.0,0.0,58,0.00,,,0.00,Wunderground v.1.15,2013-01-22 08:20:00,
2013-01-22 03:21:00,26.6,13.4,30.25,WNW,288,0.0,0.0,57,0.00,,,0.00,Wunderground v.1.15,2013-01-22 08:21:00,
2013-01-22 03:24:00,26.6,13.0,30.25,WNW,288,0.0,1.0,56,0.00,,,0.00,Wunderground v.1.15,2013-01-22 08:24:00,
2013-01-22 03:25:00,26.6,13.4,30.24,WNW,287,0.0,1.0,57,0.00,,,0.00,Wunderground v.1.15,2013-01-22 08:25:00,
2013-01-22 03:26:00,26.6,14.2,30.25,WNW,288,0.0,1.0,59,0.00,,,0.00,Wunderground v.1.15,2013-01-22 08:26:00,
2013-01-22 03:29:00,26.7,13.5,30.25,WNW,287,0.0,3.0,57,0.00,,,0.00,Wunderground v.1.15,2013-01-22 08:29:00,
2013-01-22 03:30:00,26.7,13.9,30.25,WNW,288,0.0,1.0,58,0.00,,,0.00,Wunderground v.1.15,2013-01-22 08:30:00,
2013-01-22 03:31:00,26.7,13.5,30.25,WNW,287,0.0,1.0,57,0.00,,,0.00,Wunderground v.1.15,2013-01-22 08:31:00,
2013-01-22 03:33:00,26.8,13.6,30.25,WNW,288,0.0,1.0,57,0.00,,,0.00,Wunderground v.1.15,2013-01-22 08:33:00,
2013-01-22 03:34:00,26.8,14.0,30.25,WNW,287,3.0,3.0,58,0.00,,,0.00,Wunderground v.1.15,2013-01-22 08:34:00,
2013-01-22 03:35:00,26.8,13.6,30.25,WNW,287,0.0,3.0,57,0.00,,,0.00,Wunderground v.1.15,2013-01-22 08:35:00,
2013-01-22 03:37:00,26.9,14.1,30.25,WNW,287,2.0,3.0,58,0.00,,,0.00,Wunderground v.1.15,2013-01-22 08:37:00,
2013-01-22 03:38:00,26.9,13.7,30.25,WNW,288,0.0,3.0,57,0.00,,,0.00,Wunderground v.1.15,2013-01-22 08:38:00,
2013-01-22 03:40:00,26.9,13.7,30.25,WNW,288,2.0,2.0,57,0.00,,,0.00,Wunderground v.1.15,2013-01-22 08:40:00,
2013-01-22 03:41:00,26.9,13.3,30.25,WNW,287,0.0,2.0,56,0.00,,,0.00,Wunderground v.1.15,2013-01-22 08:41:00,
2013-01-22 03:42:00,27.0,13.8,30.25,WNW,288,0.0,2.0,57,0.00,,,0.00,Wunderground v.1.15,2013-01-22 08:42:00,
2013-01-22 03:43:00,27.0,13.8,30.25,WNW,288,0.0,2.0,57,0.00,,,0.00,Wunderground v.1.15,2013-01-22 08:43:00,
2013-01-22 03:45:00,27.0,14.2,30.25,WNW,288,1.0,2.0,58,0.00,,,0.00,Wunderground v.1.15,2013-01-22 08:45:00,
2013-01-22 03:46:00,27.0,14.2,30.25,WNW,288,0.0,2.0,58,0.00,,,0.00,Wunderground v.1.15,2013-01-22 08:46:00,
2013-01-22 03:48:00,27.0,13.8,30.25,WNW,288,0.0,2.0,57,0.00,,,0.00,Wunderground v.1.15,2013-01-22 08:48:00,
2013-01-22 03:50:00,27.0,13.8,30.25,WNW,288,1.0,2.0,57,0.00,,,0.00,Wunderground v.1.15,2013-01-22 08:50:00,
2013-01-22 03:51:00,26.9,13.7,30.25,WNW,287,0.0,2.0,57,0.00,,,0.00,Wunderground v.1.15,2013-01-22 08:51:00,
2013-01-22 03:53:00,26.9,14.1,30.25,WNW,287,2.0,3.0,58,0.00,,,0.00,Wunderground v.1.15,2013-01-22 08:53:00,
2013-01-22 03:54:00,26.9,13.3,30.25,WNW,287,3.0,3.0,56,0.00,,,0.00,Wunderground v.1.15,2013-01-22 08:54:00,
2013-01-22 03:55:00,26.9,12.9,30.25,WNW,288,0.0,3.0,55,0.00,,,0.00,Wunderground v.1.15,2013-01-22 08:55:00,
2013-01-22 03:56:00,27.0,13.8,30.25,WNW,288,0.0,3.0,57,0.00,,,0.00,Wunderground v.1.15,2013-01-22 08:56:00,
2013-01-22 03:59:00,26.9,13.7,30.25,WNW,288,0.0,3.0,57,0.00,,,0.00,Wunderground v.1.15,2013-01-22 08:59:00,
2013-01-22 04:00:00,26.9,13.7,30.25,WNW,287,2.0,2.0,57,0.00,,,0.00,Wunderground v.1.15,2013-01-22 09:00:00,
2013-01-22 04:01:00,26.9,13.7,30.25,WNW,288,0.0,2.0,57,0.00,,,0.00,Wunderground v.1.15,2013-01-22 09:01:00,
2013-01-22 04:04:00,26.8,13.2,30.25,WNW,294,1.0,5.0,56,0.00,,,0.00,Wunderground v.1.15,2013-01-22 09:04:00,
2013-01-22 04:05:00,26.7,13.1,30.25,WNW,294,0.0,5.0,56,0.00,,,0.00,Wunderground v.1.15,2013-01-22 09:05:00,
2013-01-22 04:07:00,26.7,13.1,30.25,WNW,294,1.0,5.0,56,0.00,,,0.00,Wunderground v.1.15,2013-01-22 09:07:00,
2013-01-22 04:10:00,26.6,13.0,30.25,WNW,294,0.0,1.0,56,0.00,,,0.00,Wunderground v.1.15,2013-01-22 09:10:00,
2013-01-22 04:11:00,26.6,13.0,30.25,WNW,294,0.0,1.0,56,0.00,,,0.00,Wunderground v.1.15,2013-01-22 09:11:00,
2013-01-22 04:12:00,26.5,12.9,30.25,WNW,294,0.0,1.0,56,0.00,,,0.00,Wunderground v.1.15,2013-01-22 09:12:00,
2013-01-22 04:15:00,26.5,13.3,30.25,WNW,294,0.0,1.0,57,0.00,,,0.00,Wunderground v.1.15,2013-01-22 09:15:00,
2013-01-22 04:16:00,26.4,12.8,30.25,WNW,294,0.0,1.0,56,0.00,,,0.00,Wunderground v.1.15,2013-01-22 09:16:00,
2013-01-22 04:17:00,26.4,12.8,30.25,WNW,294,0.0,1.0,56,0.00,,,0.00,Wunderground v.1.15,2013-01-22 09:17:00,
2013-01-22 04:20:00,26.3,12.7,30.25,WNW,294,0.0,0.0,56,0.00,,,0.00,Wunderground v.1.15,2013-01-22 09:20:00,
2013-01-22 04:21:00,26.3,12.7,30.25,WNW,294,0.0,0.0,56,0.00,,,0.00,Wunderground v.1.15,2013-01-22 09:21:00,
2013-01-22 04:22:00,26.2,12.6,30.25,WNW,294,1.0,1.0,56,0.00,,,0.00,Wunderground v.1.15,2013-01-22 09:22:00,
2013-01-22 04:26:00,26.2,12.2,30.25,WNW,294,1.0,1.0,55,0.00,,,0.00,Wunderground v.1.15,2013-01-22 09:26:00,
2013-01-22 04:28:00,26.2,12.6,30.25,WNW,294,0.0,1.0,56,0.00,,,0.00,Wunderground v.1.15,2013-01-22 09:28:00,
2013-01-22 04:31:00,26.1,12.5,30.25,WNW,294,0.0,0.0,56,0.00,,,0.00,Wunderground v.1.15,2013-01-22 09:31:00,
2013-01-22 04:32:00,26.1,12.5,30.25,WNW,294,0.0,0.0,56,0.00,,,0.00,Wunderground v.1.15,2013-01-22 09:32:00,
2013-01-22 04:33:00,26.0,12.8,30.25,WNW,294,0.0,0.0,57,0.00,,,0.00,Wunderground v.1.15,2013-01-22 09:33:00,
2013-01-22 04:37:00,25.9,12.7,30.25,WNW,294,0.0,1.0,57,0.00,,,0.00,Wunderground v.1.15,2013-01-22 09:37:00,
2013-01-22 04:38:00,25.9,12.7,30.25,WNW,294,0.0,2.0,57,0.00,,,0.00,Wunderground v.1.15,2013-01-22 09:38:00,
2013-01-22 04:42:00,25.8,12.6,30.25,WNW,294,0.0,1.0,57,0.00,,,0.00,Wunderground v.1.15,2013-01-22 09:42:00,
2013-01-22 04:44:00,25.7,12.2,30.26,WNW,294,0.0,1.0,56,0.00,,,0.00,Wunderground v.1.15,2013-01-22 09:44:00,
2013-01-22 04:47:00,25.6,12.1,30.26,WNW,294,1.0,3.0,56,0.00,,,0.00,Wunderground v.1.15,2013-01-22 09:47:00,
2013-01-22 04:48:00,25.6,12.1,30.26,WNW,294,0.0,3.0,56,0.00,,,0.00,Wunderground v.1.15,2013-01-22 09:48:00,
2013-01-22 04:49:00,25.6,12.1,30.26,WNW,294,0.0,5.0,56,0.00,,,0.00,Wunderground v.1.15,2013-01-22 09:49:00,
2013-01-22 04:53:00,25.6,12.1,30.26,WNW,294,0.0,3.0,56,0.00,,,0.00,Wunderground v.1.15,2013-01-22 09:53:00,
2013-01-22 04:54:00,25.6,12.1,30.26,WNW,294,0.0,3.0,56,0.00,,,0.00,Wunderground v.1.15,2013-01-22 09:54:00,
2013-01-22 04:58:00,25.6,12.1,30.26,WNW,294,0.0,3.0,56,0.00,,,0.00,Wunderground v.1.15,2013-01-22 09:58:00,
2013-01-22 04:59:00,25.5,12.0,30.26,WNW,294,0.0,0.0,56,0.00,,,0.00,Wunderground v.1.15,2013-01-22 09:59:00,
2013-01-22 05:03:00,25.4,11.9,30.27,WNW,294,0.0,2.0,56,0.00,,,0.00,Wunderground v.1.15,2013-01-22 10:03:00,
2013-01-22 05:05:00,25.4,11.9,30.27,WNW,294,0.0,2.0,56,0.00,,,0.00,Wunderground v.1.15,2013-01-22 10:05:00,
2013-01-22 05:08:00,25.3,12.2,30.27,WNW,294,0.0,2.0,57,0.00,,,0.00,Wunderground v.1.15,2013-01-22 10:08:00,
2013-01-22 05:09:00,25.3,12.2,30.27,WNW,294,0.0,2.0,57,0.00,,,0.00,Wunderground v.1.15,2013-01-22 10:09:00,
2013-01-22 05:10:00,25.2,11.7,30.27,WNW,294,0.0,0.0,56,0.00,,,0.00,Wunderground v.1.15,2013-01-22 10:10:00,
2013-01-22 05:11:00,25.2,11.7,30.27,WNW,294,0.0,0.0,56,0.00,,,0.00,Wunderground v.1.15,2013-01-22 10:11:00,
2013-01-22 05:14:00,25.1,12.0,30.27,WNW,294,0.0,2.0,57,0.00,,,0.00,Wunderground v.1.15,2013-01-22 10:14:00,
2013-01-22 05:15:00,25.1,11.6,30.27,WNW,294,1.0,2.0,56,0.00,,,0.00,Wunderground v.1.15,2013-01-22 10:15:00,
2013-01-22 05:16:00,25.0,11.5,30.26,WNW,294,0.0,2.0,56,0.00,,,0.00,Wunderground v.1.15,2013-01-22 10:16:00,
2013-01-22 05:19:00,25.1,11.6,30.26,WNW,294,1.0,2.0,56,0.00,,,0.00,Wunderground v.1.15,2013-01-22 10:19:00,
2013-01-22 05:21:00,25.1,11.2,30.26,WNW,294,0.0,1.0,55,0.00,,,0.00,Wunderground v.1.15,2013-01-22 10:21:00,
2013-01-22 05:24:00,25.1,11.6,30.27,WNW,294,3.0,3.0,56,0.00,,,0.00,Wunderground v.1.15,2013-01-22 10:24:00,
2013-01-22 05:26:00,25.1,11.6,30.27,WNW,294,0.0,3.0,56,0.00,,,0.00,Wunderground v.1.15,2013-01-22 10:26:00,
2013-01-22 05:29:00,25.2,13.6,30.27,WNW,294,1.0,3.0,61,0.00,,,0.00,Wunderground v.1.15,2013-01-22 10:29:00,
2013-01-22 05:31:00,25.2,13.6,30.27,WNW,294,1.0,3.0,61,0.00,,,0.00,Wunderground v.1.15,2013-01-22 10:31:00,
2013-01-22 05:34:00,25.1,11.6,30.27,WNW,294,1.0,3.0,56,0.00,,,0.00,Wunderground v.1.15,2013-01-22 10:34:00,
2013-01-22 05:35:00,25.2,11.7,30.27,WNW,294,2.0,3.0,56,0.00,,,0.00,Wunderground v.1.15,2013-01-22 10:35:00,
2013-01-22 05:36:00,25.1,11.6,30.27,WNW,294,1.0,3.0,56,0.00,,,0.00,Wunderground v.1.15,2013-01-22 10:36:00,
2013-01-22 05:37:00,25.1,12.0,30.27,WNW,294,0.0,3.0,57,0.00,,,0.00,Wunderground v.1.15,2013-01-22 10:37:00,
2013-01-22 05:40:00,25.0,11.9,30.28,WNW,294,0.0,1.0,57,0.00,,,0.00,Wunderground v.1.15,2013-01-22 10:40:00,
2013-01-22 05:41:00,25.0,11.9,30.28,WNW,294,1.0,1.0,57,0.00,,,0.00,Wunderground v.1.15,2013-01-22 10:41:00,
2013-01-22 05:42:00,25.0,11.9,30.28,WNW,294,1.0,1.0,57,0.00,,,0.00,Wunderground v.1.15,2013-01-22 10:42:00,
2013-01-22 05:45:00,24.9,12.2,30.28,WNW,294,0.0,1.0,58,0.00,,,0.00,Wunderground v.1.15,2013-01-22 10:45:00,
2013-01-22 05:46:00,24.9,12.2,30.28,WNW,294,0.0,1.0,58,0.00,,,0.00,Wunderground v.1.15,2013-01-22 10:46:00,
2013-01-22 05:47:00,24.8,12.1,30.27,WNW,294,0.0,1.0,58,0.00,,,0.00,Wunderground v.1.15,2013-01-22 10:47:00,
2013-01-22 05:50:00,24.7,12.0,30.28,WNW,294,0.0,0.0,58,0.00,,,0.00,Wunderground v.1.15,2013-01-22 10:50:00,
2013-01-22 05:51:00,24.7,12.0,30.28,WNW,294,0.0,0.0,58,0.00,,,0.00,Wunderground v.1.15,2013-01-22 10:51:00,
2013-01-22 05:52:00,24.7,12.0,30.28,WNW,294,0.0,0.0,58,0.00,,,0.00,Wunderground v.1.15,2013-01-22 10:52:00,
2013-01-22 05:55:00,24.5,11.8,30.28,WNW,294,0.0,1.0,58,0.00,,,0.00,Wunderground v.1.15,2013-01-22 10:55:00,
2013-01-22 05:56:00,24.5,11.8,30.27,WNW,294,0.0,1.0,58,0.00,,,0.00,Wunderground v.1.15,2013-01-22 10:56:00,
2013-01-22 05:57:00,24.5,11.8,30.27,WNW,294,0.0,1.0,58,0.00,,,0.00,Wunderground v.1.15,2013-01-22 10:57:00,
2013-01-22 06:00:00,24.3,12.0,30.28,WNW,294,0.0,0.0,59,0.00,,,0.00,Wunderground v.1.15,2013-01-22 11:00:00,
2013-01-22 06:02:00,24.3,12.0,30.28,WNW,294,0.0,1.0,59,0.00,,,0.00,Wunderground v.1.15,2013-01-22 11:02:00,
2013-01-22 06:03:00,24.3,12.0,30.28,WNW,294,0.0,1.0,59,0.00,,,0.00,Wunderground v.1.15,2013-01-22 11:03:00,
2013-01-22 06:06:00,24.2,11.5,30.28,WNW,294,0.0,2.0,58,0.00,,,0.00,Wunderground v.1.15,2013-01-22 11:06:00,
2013-01-22 06:07:00,24.2,11.5,30.28,WNW,294,0.0,2.0,58,0.00,,,0.00,Wunderground v.1.15,2013-01-22 11:07:00,
2013-01-22 06:08:00,24.2,11.5,30.28,WNW,294,0.0,2.0,58,0.00,,,0.00,Wunderground v.1.15,2013-01-22 11:08:00,
2013-01-22 06:12:00,24.0,11.7,30.29,WNW,294,0.0,1.0,59,0.00,,,0.00,Wunderground v.1.15,2013-01-22 11:12:00,
2013-01-22 06:13:00,24.0,11.7,30.29,WNW,294,0.0,1.0,59,0.00,,,0.00,Wunderground v.1.15,2013-01-22 11:13:00,
2013-01-22 06:17:00,23.9,11.6,30.29,WNW,294,0.0,1.0,59,0.00,,,0.00,Wunderground v.1.15,2013-01-22 11:17:00,
2013-01-22 06:18:00,23.8,11.5,30.29,WNW,294,0.0,1.0,59,0.00,,,0.00,Wunderground v.1.15,2013-01-22 11:18:00,
2013-01-22 06:19:00,23.8,11.5,30.29,WNW,294,1.0,1.0,59,0.00,,,0.00,Wunderground v.1.15,2013-01-22 11:19:00,
2013-01-22 06:23:00,23.7,11.4,30.29,WNW,294,1.0,1.0,59,0.00,,,0.00,Wunderground v.1.15,2013-01-22 11:23:00,
2013-01-22 06:24:00,23.6,11.4,30.29,WNW,294,0.0,1.0,59,0.00,,,0.00,Wunderground v.1.15,2013-01-22 11:24:00,
2013-01-22 06:28:00,23.5,10.9,30.29,WNW,294,3.0,3.0,58,0.00,,,0.00,Wunderground v.1.15,2013-01-22 11:28:00,
2013-01-22 06:29:00,23.5,10.5,30.29,WNW,294,2.0,3.0,57,0.00,,,0.00,Wunderground v.1.15,2013-01-22 11:29:00,
2013-01-22 06:33:00,23.5,10.9,30.29,WNW,294,0.0,5.0,58,0.00,,,0.00,Wunderground v.1.15,2013-01-22 11:33:00,
2013-01-22 06:34:00,23.5,10.5,30.29,WNW,294,0.0,5.0,57,0.00,,,0.00,Wunderground v.1.15,2013-01-22 11:34:00,
2013-01-22 06:39:00,23.5,10.5,30.29,WNW,294,0.0,5.0,57,0.00,,,0.00,Wunderground v.1.15,2013-01-22 11:39:00,
2013-01-22 06:44:00,23.4,10.8,30.30,WNW,294,0.0,1.0,58,0.00,,,0.00,Wunderground v.1.15,2013-01-22 11:44:00,
2013-01-22 06:49:00,23.3,10.3,30.29,WNW,294,0.0,2.0,57,0.00,,,0.00,Wunderground v.1.15,2013-01-22 11:49:00,
2013-01-22 06:50:00,23.3,10.3,30.29,WNW,294,0.0,0.0,57,0.00,,,0.00,Wunderground v.1.15,2013-01-22 11:50:00,
2013-01-22 06:54:00,23.2,10.2,30.30,WNW,294,0.0,1.0,57,0.00,,,0.00,Wunderground v.1.15,2013-01-22 11:54:00,
2013-01-22 06:55:00,23.1,9.7,30.30,WNW,294,0.0,1.0,56,0.00,,,0.00,Wunderground v.1.15,2013-01-22 11:55:00,
2013-01-22 06:59:00,23.0,10.0,30.30,WNW,294,0.0,1.0,57,0.00,,,0.00,Wunderground v.1.15,2013-01-22 11:59:00,
2013-01-22 07:00:00,23.0,11.9,30.30,WNW,294,0.0,0.0,62,0.00,,,0.00,Wunderground v.1.15,2013-01-22 12:00:00,
2013-01-22 07:01:00,23.0,11.9,30.30,WNW,294,0.0,0.0,62,0.00,,,0.00,Wunderground v.1.15,2013-01-22 12:01:00,
2013-01-22 07:02:00,23.0,10.4,30.30,WNW,294,0.0,0.0,58,0.00,,,0.00,Wunderground v.1.15,2013-01-22 12:02:00,
2013-01-22 07:04:00,22.9,9.9,30.30,WNW,294,0.0,0.0,57,0.00,,,0.00,Wunderground v.1.15,2013-01-22 12:04:00,
2013-01-22 07:05:00,22.8,9.8,30.30,WNW,294,0.0,0.0,57,0.00,,,0.00,Wunderground v.1.15,2013-01-22 12:05:00,
2013-01-22 07:07:00,22.8,10.2,30.30,WNW,294,0.0,0.0,58,0.00,,,0.00,Wunderground v.1.15,2013-01-22 12:07:00,
2013-01-22 07:09:00,22.7,10.1,30.30,WNW,294,0.0,0.0,58,0.00,,,0.00,Wunderground v.1.15,2013-01-22 12:09:00,
2013-01-22 07:11:00,22.7,10.1,30.30,WNW,294,0.0,0.0,58,0.00,,,0.00,Wunderground v.1.15,2013-01-22 12:11:00,
2013-01-22 07:12:00,22.7,10.1,30.30,WNW,294,0.0,0.0,58,0.00,,,0.00,Wunderground v.1.15,2013-01-22 12:12:00,
2013-01-22 07:13:00,22.6,10.0,30.30,WNW,294,0.0,0.0,58,0.00,,,0.00,Wunderground v.1.15,2013-01-22 12:13:00,
2013-01-22 07:14:00,22.6,10.0,30.30,WNW,294,0.0,0.0,58,0.00,,,0.00,Wunderground v.1.15,2013-01-22 12:14:00,
2013-01-22 07:16:00,22.5,9.9,30.31,WNW,294,0.0,0.0,58,0.00,,,0.00,Wunderground v.1.15,2013-01-22 12:16:00,
2013-01-22 07:17:00,22.5,10.3,30.30,WNW,294,0.0,0.0,59,0.00,,,0.00,Wunderground v.1.15,2013-01-22 12:17:00,
2013-01-22 07:18:00,22.4,9.8,30.30,WNW,294,0.0,0.0,58,0.00,,,0.00,Wunderground v.1.15,2013-01-22 12:18:00,
2013-01-22 07:21:00,22.3,10.1,30.31,WNW,294,0.0,0.0,59,0.00,,,0.00,Wunderground v.1.15,2013-01-22 12:21:00,
2013-01-22 07:23:00,22.3,10.1,30.30,WNW,294,0.0,0.0,59,0.00,,,0.00,Wunderground v.1.15,2013-01-22 12:23:00,
2013-01-22 07:24:00,22.2,10.0,30.30,WNW,294,0.0,0.0,59,0.00,,,0.00,Wunderground v.1.15,2013-01-22 12:24:00,
2013-01-22 07:26:00,22.2,10.0,30.30,WNW,294,0.0,0.0,59,0.00,,,0.00,Wunderground v.1.15,2013-01-22 12:26:00,
2013-01-22 07:29:00,22.1,9.9,30.30,WNW,294,0.0,0.0,59,0.00,,,0.00,Wunderground v.1.15,2013-01-22 12:29:00,
2013-01-22 07:31:00,22.0,10.2,30.31,WNW,294,0.0,0.0,60,0.00,,,0.00,Wunderground v.1.15,2013-01-22 12:31:00,
2013-01-22 07:32:00,22.0,10.2,30.31,WNW,294,0.0,0.0,60,0.00,,,0.00,Wunderground v.1.15,2013-01-22 12:32:00,
2013-01-22 07:34:00,22.0,10.2,30.31,WNW,294,0.0,0.0,60,0.00,,,0.00,Wunderground v.1.15,2013-01-22 12:34:00,
2013-01-22 07:37:00,21.9,10.1,30.31,WNW,294,0.0,0.0,60,0.00,,,0.00,Wunderground v.1.15,2013-01-22 12:37:00,
2013-01-22 07:38:00,21.9,10.1,30.31,WNW,294,0.0,0.0,60,0.00,,,0.00,Wunderground v.1.15,2013-01-22 12:38:00,
2013-01-22 07:39:00,21.9,10.1,30.31,WNW,294,0.0,0.0,60,0.00,,,0.00,Wunderground v.1.15,2013-01-22 12:39:00,
2013-01-22 07:42:00,21.8,10.0,30.32,WNW,294,0.0,0.0,60,0.00,,,0.00,Wunderground v.1.15,2013-01-22 12:42:00,
2013-01-22 07:43:00,21.8,10.0,30.31,WNW,294,0.0,0.0,60,0.00,,,0.00,Wunderground v.1.15,2013-01-22 12:43:00,
2013-01-22 07:45:00,21.8,10.4,30.31,WNW,294,0.0,0.0,61,0.00,,,0.00,Wunderground v.1.15,2013-01-22 12:45:00,
2013-01-22 07:47:00,21.7,10.3,30.31,WNW,294,0.0,0.0,61,0.00,,,0.00,Wunderground v.1.15,2013-01-22 12:47:00,
2013-01-22 07:48:00,21.7,10.3,30.32,WNW,294,0.0,0.0,61,0.00,,,0.00,Wunderground v.1.15,2013-01-22 12:48:00,
2013-01-22 07:51:00,21.6,10.2,30.31,WNW,294,0.0,0.0,61,0.00,,,0.00,Wunderground v.1.15,2013-01-22 12:51:00,
2013-01-22 07:52:00,21.6,10.2,30.32,WNW,294,0.0,1.0,61,0.00,,,0.00,Wunderground v.1.15,2013-01-22 12:52:00,
2013-01-22 07:53:00,21.5,10.1,30.32,WNW,294,0.0,1.0,61,0.00,,,0.00,Wunderground v.1.15,2013-01-22 12:53:00,
2013-01-22 07:57:00,21.5,10.5,30.32,WNW,294,1.0,1.0,62,0.00,,,0.00,Wunderground v.1.15,2013-01-22 12:57:00,
2013-01-22 07:59:00,21.5,10.5,30.32,WNW,294,1.0,1.0,62,0.00,,,0.00,Wunderground v.1.15,2013-01-22 12:59:00,
2013-01-22 08:02:00,21.5,10.5,30.32,WNW,294,0.0,2.0,62,0.00,,,0.00,Wunderground v.1.15,2013-01-22 13:02:00,
2013-01-22 08:03:00,21.5,10.5,30.32,WNW,294,0.0,2.0,62,0.00,,,0.00,Wunderground v.1.15,2013-01-22 13:03:00,
2013-01-22 08:07:00,21.5,10.5,30.32,WNW,294,0.0,2.0,62,0.00,,,0.00,Wunderground v.1.15,2013-01-22 13:07:00,
2013-01-22 08:08:00,21.6,10.6,30.32,WNW,294,0.0,2.0,62,0.00,,,0.00,Wunderground v.1.15,2013-01-22 13:08:00,
2013-01-22 08:09:00,21.6,10.6,30.32,WNW,294,1.0,2.0,62,0.00,,,0.00,Wunderground v.1.15,2013-01-22 13:09:00,
2013-01-22 08:13:00,21.7,10.7,30.32,WNW,294,1.0,2.0,62,0.00,,,0.00,Wunderground v.1.15,2013-01-22 13:13:00,
2013-01-22 08:15:00,21.7,10.7,30.32,WNW,294,1.0,2.0,62,0.00,,,0.00,Wunderground v.1.15,2013-01-22 13:15:00,
2013-01-22 08:18:00,21.8,10.0,30.33,WNW,294,0.0,2.0,60,0.00,,,0.00,Wunderground v.1.15,2013-01-22 13:18:00,
2013-01-22 08:19:00,21.8,10.4,30.33,WNW,294,0.0,2.0,61,0.00,,,0.00,Wunderground v.1.15,2013-01-22 13:19:00,
2013-01-22 08:20:00,21.9,10.1,30.33,WNW,294,0.0,0.0,60,0.00,,,0.00,Wunderground v.1.15,2013-01-22 13:20:00,
2013-01-22 08:23:00,21.9,10.1,30.33,WNW,294,0.0,0.0,60,0.00,,,0.00,Wunderground v.1.15,2013-01-22 13:23:00,
2013-01-22 08:24:00,21.9,10.1,30.33,WNW,294,0.0,0.0,60,0.00,,,0.00,Wunderground v.1.15,2013-01-22 13:24:00,
2013-01-22 08:25:00,21.9,10.1,30.33,WNW,294,0.0,0.0,60,0.00,,,0.00,Wunderground v.1.15,2013-01-22 13:25:00,
2013-01-22 08:28:00,22.0,10.6,30.33,WNW,294,0.0,1.0,61,0.00,,,0.00,Wunderground v.1.15,2013-01-22 13:28:00,
2013-01-22 08:29:00,22.0,10.6,30.33,WNW,294,1.0,1.0,61,0.00,,,0.00,Wunderground v.1.15,2013-01-22 13:29:00,
2013-01-22 08:30:00,22.0,10.2,30.33,WNW,294,0.0,1.0,60,0.00,,,0.00,Wunderground v.1.15,2013-01-22 13:30:00,
2013-01-22 08:31:00,22.1,10.3,30.33,WNW,294,0.0,1.0,60,0.00,,,0.00,Wunderground v.1.15,2013-01-22 13:31:00,
2013-01-22 08:33:00,22.3,10.5,30.34,WNW,294,2.0,3.0,60,0.00,,,0.00,Wunderground v.1.15,2013-01-22 13:33:00,
2013-01-22 08:34:00,22.4,10.2,30.34,WNW,294,1.0,3.0,59,0.00,,,0.00,Wunderground v.1.15,2013-01-22 13:34:00,
2013-01-22 08:36:00,22.5,10.7,30.33,WNW,294,0.0,3.0,60,0.00,,,0.00,Wunderground v.1.15,2013-01-22 13:36:00,
2013-01-22 08:37:00,22.7,10.9,30.33,WNW,294,0.0,3.0,60,0.00,,,0.00,Wunderground v.1.15,2013-01-22 13:37:00,
2013-01-22 08:38:00,22.9,11.1,30.33,WNW,294,0.0,3.0,60,0.00,,,0.00,Wunderground v.1.15,2013-01-22 13:38:00,
2013-01-22 08:39:00,23.0,11.2,30.33,WNW,294,1.0,3.0,60,0.00,,,0.00,Wunderground v.1.15,2013-01-22 13:39:00,
2013-01-22 08:41:00,23.3,11.1,30.33,WNW,294,1.0,1.0,59,0.00,,,0.00,Wunderground v.1.15,2013-01-22 13:41:00,
2013-01-22 08:42:00,23.5,10.9,30.33,WNW,294,0.0,2.0,58,0.00,,,0.00,Wunderground v.1.15,2013-01-22 13:42:00,
2013-01-22 08:44:00,23.7,10.7,30.33,WNW,294,1.0,2.0,57,0.00,,,0.00,Wunderground v.1.15,2013-01-22 13:44:00,
2013-01-22 08:45:00,23.9,10.5,30.33,WNW,294,2.0,3.0,56,0.00,,,0.00,Wunderground v.1.15,2013-01-22 13:45:00,
2013-01-22 08:46:00,24.1,12.6,30.33,WNW,294,2.0,3.0,61,0.00,,,0.00,Wunderground v.1.15,2013-01-22 13:46:00,
2013-01-22 08:48:00,24.3,10.4,30.33,WNW,294,2.0,4.0,55,0.00,,,0.00,Wunderground v.1.15,2013-01-22 13:48:00,
2013-01-22 08:49:00,24.4,10.5,30.33,WNW,294,1.0,4.0,55,0.00,,,0.00,Wunderground v.1.15,2013-01-22 13:49:00,
2013-01-22 08:50:00,24.4,10.5,30.33,WNW,294,2.0,3.0,55,0.00,,,0.00,Wunderground v.1.15,2013-01-22 13:50:00,
2013-01-22 08:52:00,24.6,10.7,30.33,WNW,294,0.0,3.0,55,0.00,,,0.00,Wunderground v.1.15,2013-01-22 13:52:00,
2013-01-22 08:54:00,24.7,10.8,30.33,WNW,294,3.0,3.0,55,0.00,,,0.00,Wunderground v.1.15,2013-01-22 13:54:00,
2013-01-22 08:55:00,24.8,10.9,30.33,WNW,294,2.0,4.0,55,0.00,,,0.00,Wunderground v.1.15,2013-01-22 13:55:00,
2013-01-22 08:59:00,25.1,11.2,30.33,WNW,294,2.0,4.0,55,0.00,,,0.00,Wunderground v.1.15,2013-01-22 13:59:00,
2013-01-22 09:00:00,25.1,10.8,30.33,WNW,294,0.0,2.0,54,0.00,,,0.00,Wunderground v.1.15,2013-01-22 14:00:00,
2013-01-22 09:04:00,25.4,11.0,30.34,WNW,294,2.0,3.0,54,0.00,,,0.00,Wunderground v.1.15,2013-01-22 14:04:00,
2013-01-22 09:05:00,25.4,11.0,30.33,WNW,294,1.0,4.0,54,0.00,,,0.00,Wunderground v.1.15,2013-01-22 14:05:00,
2013-01-22 09:09:00,25.6,10.8,30.33,WNW,294,1.0,4.0,53,0.00,,,0.00,Wunderground v.1.15,2013-01-22 14:09:00,
2013-01-22 09:10:00,25.8,11.8,30.33,WNW,294,3.0,5.0,55,0.00,,,0.00,Wunderground v.1.15,2013-01-22 14:10:00,
2013-01-22 09:14:00,26.2,11.8,30.33,WNW,294,1.0,5.0,54,0.00,,,0.00,Wunderground v.1.15,2013-01-22 14:14:00,
2013-01-22 09:15:00,26.2,11.8,30.33,WNW,294,0.0,5.0,54,0.00,,,0.00,Wunderground v.1.15,2013-01-22 14:15:00,
2013-01-22 09:16:00,26.3,11.9,30.33,WNW,294,2.0,5.0,54,0.00,,,0.00,Wunderground v.1.15,2013-01-22 14:16:00,
2013-01-22 09:19:00,26.5,10.8,30.33,WNW,295,0.0,5.0,51,0.00,,,0.00,Wunderground v.1.15,2013-01-22 14:19:00,
2013-01-22 09:21:00,26.6,11.3,30.33,WNW,296,5.0,5.0,52,0.00,,,0.00,Wunderground v.1.15,2013-01-22 14:21:00,
2013-01-22 09:22:00,26.6,10.9,30.33,WNW,299,4.0,7.0,51,0.00,,,0.00,Wunderground v.1.15,2013-01-22 14:22:00,
2013-01-22 09:24:00,26.6,10.9,30.33,WNW,299,1.0,7.0,51,0.00,,,0.00,Wunderground v.1.15,2013-01-22 14:24:00,
2013-01-22 09:26:00,26.6,10.4,30.33,WNW,299,2.0,7.0,50,0.00,,,0.00,Wunderground v.1.15,2013-01-22 14:26:00,
2013-01-22 09:27:00,26.7,10.1,30.33,WNW,299,2.0,7.0,49,0.00,,,0.00,Wunderground v.1.15,2013-01-22 14:27:00,
2013-01-22 09:28:00,26.7,10.1,30.33,WNW,299,2.0,7.0,49,0.00,,,0.00,Wunderground v.1.15,2013-01-22 14:28:00,
2013-01-22 09:30:00,26.7,11.0,30.33,WNW,299,2.0,2.0,51,0.00,,,0.00,Wunderground v.1.15,2013-01-22 14:30:00,
2013-01-22 09:32:00,26.8,9.7,30.33,NW,305,0.0,6.0,48,0.00,,,0.00,Wunderground v.1.15,2013-01-22 14:32:00,
2013-01-22 09:33:00,26.8,9.7,30.33,NW,321,1.0,7.0,48,0.00,,,0.00,Wunderground v.1.15,2013-01-22 14:33:00,
2013-01-22 09:35:00,26.8,9.7,30.33,NW,321,4.0,7.0,48,0.00,,,0.00,Wunderground v.1.15,2013-01-22 14:35:00,
2013-01-22 09:37:00,26.8,9.7,30.34,NW,321,3.0,7.0,48,0.00,,,0.00,Wunderground v.1.15,2013-01-22 14:37:00,
2013-01-22 09:38:00,26.8,9.7,30.34,NW,321,3.0,7.0,48,0.00,,,0.00,Wunderground v.1.15,2013-01-22 14:38:00,
2013-01-22 09:40:00,26.9,9.8,30.34,NW,321,6.0,6.0,48,0.00,,,0.00,Wunderground v.1.15,2013-01-22 14:40:00,
2013-01-22 09:43:00,26.9,9.8,30.34,NW,323,3.0,6.0,48,0.00,,,0.00,Wunderground v.1.15,2013-01-22 14:43:00,
2013-01-22 09:45:00,26.9,9.8,30.34,NW,324,2.0,6.0,48,0.00,,,0.00,Wunderground v.1.15,2013-01-22 14:45:00,
2013-01-22 09:46:00,26.9,10.3,30.34,NW,324,4.0,6.0,49,0.00,,,0.00,Wunderground v.1.15,2013-01-22 14:46:00,
2013-01-22 09:48:00,27.0,10.4,30.35,NW,324,0.0,6.0,49,0.00,,,0.00,Wunderground v.1.15,2013-01-22 14:48:00,
2013-01-22 09:50:00,27.2,10.1,30.34,NW,324,1.0,3.0,48,0.00,,,0.00,Wunderground v.1.15,2013-01-22 14:50:00,
2013-01-22 09:51:00,27.3,10.6,30.34,NW,324,1.0,3.0,49,0.00,,,0.00,Wunderground v.1.15,2013-01-22 14:51:00,
2013-01-22 09:53:00,27.5,9.9,30.35,NW,323,2.0,3.0,47,0.00,,,0.00,Wunderground v.1.15,2013-01-22 14:53:00,
2013-01-22 09:55:00,27.6,10.9,30.35,NW,324,4.0,4.0,49,0.00,,,0.00,Wunderground v.1.15,2013-01-22 14:55:00,
2013-01-22 09:57:00,27.7,10.1,30.35,NW,323,2.0,4.0,47,0.00,,,0.00,Wunderground v.1.15,2013-01-22 14:57:00,
2013-01-22 09:59:00,27.7,10.1,30.35,NW,323,1.0,4.0,47,0.00,,,0.00,Wunderground v.1.15,2013-01-22 14:59:00,
2013-01-22 10:00:00,27.8,10.2,30.35,NW,324,2.0,2.0,47,0.00,,,0.00,Wunderground v.1.15,2013-01-22 15:00:00,
2013-01-22 10:02:00,27.8,10.6,30.35,NW,324,1.0,3.0,48,0.00,,,0.00,Wunderground v.1.15,2013-01-22 15:02:00,
2013-01-22 10:04:00,28.0,10.8,30.35,NW,323,1.0,4.0,48,0.00,,,0.00,Wunderground v.1.15,2013-01-22 15:04:00,
2013-01-22 10:05:00,28.1,11.4,30.35,NW,324,2.0,4.0,49,0.00,,,0.00,Wunderground v.1.15,2013-01-22 15:05:00,
2013-01-22 10:07:00,28.2,11.0,30.35,NW,324,4.0,4.0,48,0.00,,,0.00,Wunderground v.1.15,2013-01-22 15:07:00,
2013-01-22 10:09:00,28.2,10.5,30.35,NW,324,3.0,4.0,47,0.00,,,0.00,Wunderground v.1.15,2013-01-22 15:09:00,
2013-01-22 10:10:00,28.2,10.5,30.35,NW,324,4.0,4.0,47,0.00,,,0.00,Wunderground v.1.15,2013-01-22 15:10:00,
2013-01-22 10:12:00,28.0,10.3,30.36,NW,324,2.0,4.0,47,0.00,,,0.00,Wunderground v.1.15,2013-01-22 15:12:00,
2013-01-22 10:14:00,27.9,10.2,30.35,NW,324,0.0,4.0,47,0.00,,,0.00,Wunderground v.1.15,2013-01-22 15:14:00,
2013-01-22 10:17:00,28.0,10.8,30.35,NW,324,4.0,4.0,48,0.00,,,0.00,Wunderground v.1.15,2013-01-22 15:17:00,
2013-01-22 10:18:00,28.0,10.8,30.35,NW,324,2.0,4.0,48,0.00,,,0.00,Wunderground v.1.15,2013-01-22 15:18:00,
2013-01-22 10:19:00,28.0,9.9,30.36,NW,324,0.0,5.0,46,0.00,,,0.00,Wunderground v.1.15,2013-01-22 15:19:00,
2013-01-22 10:23:00,27.9,10.7,30.36,NW,324,2.0,5.0,48,0.00,,,0.00,Wunderground v.1.15,2013-01-22 15:23:00,
2013-01-22 10:24:00,27.9,9.8,30.36,NW,323,1.0,5.0,46,0.00,,,0.00,Wunderground v.1.15,2013-01-22 15:24:00,
2013-01-22 10:28:00,28.0,10.8,30.36,NW,324,1.0,5.0,48,0.00,,,0.00,Wunderground v.1.15,2013-01-22 15:28:00,
2013-01-22 10:29:00,28.1,10.9,30.36,NW,323,2.0,2.0,48,0.00,,,0.00,Wunderground v.1.15,2013-01-22 15:29:00,
2013-01-22 10:30:00,28.1,10.4,30.36,NW,323,0.0,2.0,47,0.00,,,0.00,Wunderground v.1.15,2013-01-22 15:30:00,
2013-01-22 10:33:00,28.2,10.5,30.36,NW,323,3.0,4.0,47,0.00,,,0.00,Wunderground v.1.15,2013-01-22 15:33:00,
2013-01-22 10:35:00,28.2,10.0,30.36,NW,324,1.0,4.0,46,0.00,,,0.00,Wunderground v.1.15,2013-01-22 15:35:00,
2013-01-22 10:38:00,28.3,10.1,30.37,NW,323,0.0,4.0,46,0.00,,,0.00,Wunderground v.1.15,2013-01-22 15:38:00,
2013-01-22 10:40:00,28.3,10.6,30.37,NW,324,0.0,1.0,47,0.00,,,0.00,Wunderground v.1.15,2013-01-22 15:40:00,
2013-01-22 10:43:00,28.4,10.7,30.37,NW,324,1.0,4.0,47,0.00,,,0.00,Wunderground v.1.15,2013-01-22 15:43:00,
2013-01-22 10:45:00,28.6,10.4,30.37,NW,324,0.0,4.0,46,0.00,,,0.00,Wunderground v.1.15,2013-01-22 15:45:00,
2013-01-22 10:48:00,28.8,10.6,30.37,NW,323,0.0,4.0,46,0.00,,,0.00,Wunderground v.1.15,2013-01-22 15:48:00,
2013-01-22 10:49:00,28.8,10.6,30.37,NW,323,1.0,4.0,46,0.00,,,0.00,Wunderground v.1.15,2013-01-22 15:49:00,
2013-01-22 10:50:00,28.9,11.2,30.37,NW,323,2.0,2.0,47,0.00,,,0.00,Wunderground v.1.15,2013-01-22 15:50:00,
2013-01-22 10:54:00,29.3,9.5,30.36,NW,324,0.0,2.0,43,0.00,,,0.00,Wunderground v.1.15,2013-01-22 15:54:00,
2013-01-22 10:55:00,29.4,10.6,30.36,NW,324,3.0,3.0,45,0.00,,,0.00,Wunderground v.1.15,2013-01-22 15:55:00,
2013-01-22 10:59:00,29.6,9.8,30.36,NW,324,1.0,3.0,43,0.00,,,0.00,Wunderground v.1.15,2013-01-22 15:59:00,
2013-01-22 11:00:00,29.8,10.5,30.36,NW,323,3.0,3.0,44,0.00,,,0.00,Wunderground v.1.15,2013-01-22 16:00:00,
2013-01-22 11:02:00,29.9,10.6,30.36,NW,324,0.0,3.0,44,0.00,,,0.00,Wunderground v.1.15,2013-01-22 16:02:00,
2013-01-22 11:04:00,30.3,11.5,30.37,NW,323,1.0,4.0,45,0.00,,,0.00,Wunderground v.1.15,2013-01-22 16:04:00,
2013-01-22 11:05:00,30.4,11.6,30.37,NW,323,2.0,4.0,45,0.00,,,0.00,Wunderground v.1.15,2013-01-22 16:05:00,
2013-01-22 11:07:00,30.7,11.8,30.36,NW,324,2.0,5.0,45,0.00,,,0.00,Wunderground v.1.15,2013-01-22 16:07:00,
2013-01-22 11:09:00,30.7,10.3,30.36,NW,323,4.0,7.0,42,0.00,,,0.00,Wunderground v.1.15,2013-01-22 16:09:00,
2013-01-22 11:10:00,30.6,9.7,30.36,NW,322,4.0,6.0,41,0.00,,,0.00,Wunderground v.1.15,2013-01-22 16:10:00,
2013-01-22 11:11:00,30.3,9.4,30.36,NW,322,3.0,6.0,41,0.00,,,0.00,Wunderground v.1.15,2013-01-22 16:11:00,
2013-01-22 11:12:00,30.0,9.6,30.36,NW,323,1.0,6.0,42,0.00,,,0.00,Wunderground v.1.15,2013-01-22 16:12:00,
2013-01-22 11:15:00,29.8,9.5,30.36,NW,323,0.0,6.0,42,0.00,,,0.00,Wunderground v.1.15,2013-01-22 16:15:00,
2013-01-22 11:16:00,29.7,9.9,30.36,NW,322,3.0,6.0,43,0.00,,,0.00,Wunderground v.1.15,2013-01-22 16:16:00,
2013-01-22 11:17:00,29.8,10.0,30.36,NW,323,4.0,6.0,43,0.00,,,0.00,Wunderground v.1.15,2013-01-22 16:17:00,
2013-01-22 11:20:00,29.9,9.0,30.36,NW,324,1.0,3.0,41,0.00,,,0.00,Wunderground v.1.15,2013-01-22 16:20:00,
2013-01-22 11:22:00,30.0,9.6,30.36,NW,324,2.0,3.0,42,0.00,,,0.00,Wunderground v.1.15,2013-01-22 16:22:00,
2013-01-22 11:23:00,30.1,10.8,30.36,NW,323,4.0,4.0,44,0.00,,,0.00,Wunderground v.1.15,2013-01-22 16:23:00,
2013-01-22 11:26:00,30.4,10.5,30.36,NW,324,4.0,5.0,43,0.00,,,0.00,Wunderground v.1.15,2013-01-22 16:26:00,
2013-01-22 11:28:00,30.6,10.7,30.36,NW,324,2.0,5.0,43,0.00,,,0.00,Wunderground v.1.15,2013-01-22 16:28:00,
2013-01-22 11:31:00,30.9,10.5,30.36,NW,324,0.0,5.0,42,0.00,,,0.00,Wunderground v.1.15,2013-01-22 16:31:00,
2013-01-22 11:33:00,31.0,10.6,30.36,NW,324,3.0,5.0,42,0.00,,,0.00,Wunderground v.1.15,2013-01-22 16:33:00,
2013-01-22 11:35:00,31.0,10.0,30.36,NW,324,3.0,6.0,41,0.00,,,0.00,Wunderground v.1.15,2013-01-22 16:35:00,
2013-01-22 11:36:00,30.9,9.4,30.36,NW,324,1.0,6.0,40,0.00,,,0.00,Wunderground v.1.15,2013-01-22 16:36:00,
2013-01-22 11:38:00,30.8,9.8,30.36,NW,324,4.0,6.0,41,0.00,,,0.00,Wunderground v.1.15,2013-01-22 16:38:00,
2013-01-22 11:40:00,30.7,9.7,30.36,NW,323,2.0,4.0,41,0.00,,,0.00,Wunderground v.1.15,2013-01-22 16:40:00,
2013-01-22 11:41:00,30.7,10.8,30.36,NW,324,2.0,4.0,43,0.00,,,0.00,Wunderground v.1.15,2013-01-22 16:41:00,
2013-01-22 11:43:00,30.8,9.8,30.36,NW,324,1.0,6.0,41,0.00,,,0.00,Wunderground v.1.15,2013-01-22 16:43:00,
2013-01-22 11:44:00,30.8,10.4,30.36,NW,323,4.0,6.0,42,0.00,,,0.00,Wunderground v.1.15,2013-01-22 16:44:00,
2013-01-22 11:45:00,30.8,9.8,30.36,NW,324,3.0,6.0,41,0.00,,,0.00,Wunderground v.1.15,2013-01-22 16:45:00,
2013-01-22 11:47:00,30.8,10.4,30.36,NW,324,2.0,6.0,42,0.00,,,0.00,Wunderground v.1.15,2013-01-22 16:47:00,
2013-01-22 11:48:00,30.8,10.4,30.36,NW,324,2.0,6.0,42,0.00,,,0.00,Wunderground v.1.15,2013-01-22 16:48:00,
2013-01-22 11:49:00,30.9,11.0,30.36,NW,324,2.0,6.0,43,0.00,,,0.00,Wunderground v.1.15,2013-01-22 16:49:00,
2013-01-22 11:51:00,30.9,9.9,30.36,NW,324,5.0,6.0,41,0.00,,,0.00,Wunderground v.1.15,2013-01-22 16:51:00,
2013-01-22 11:52:00,30.7,8.6,30.35,NW,323,3.0,6.0,39,0.00,,,0.00,Wunderground v.1.15,2013-01-22 16:52:00,
2013-01-22 11:54:00,30.7,9.7,30.36,NW,322,6.0,7.0,41,0.00,,,0.00,Wunderground v.1.15,2013-01-22 16:54:00,
2013-01-22 11:55:00,30.7,9.7,30.36,NW,322,2.0,7.0,41,0.00,,,0.00,Wunderground v.1.15,2013-01-22 16:55:00,
2013-01-22 11:57:00,30.8,9.8,30.35,NW,322,2.0,7.0,41,0.00,,,0.00,Wunderground v.1.15,2013-01-22 16:57:00,
2013-01-22 11:59:00,31.0,10.6,30.35,NW,323,3.0,7.0,42,0.00,,,0.00,Wunderground v.1.15,2013-01-22 16:59:00,
2013-01-22 12:00:00,31.0,10.0,30.35,NW,322,2.0,3.0,41,0.00,,,0.00,Wunderground v.1.15,2013-01-22 17:00:00,
2013-01-22 12:01:00,31.1,10.6,30.35,NW,322,3.0,5.0,42,0.00,,,0.00,Wunderground v.1.15,2013-01-22 17:01:00,
2013-01-22 12:02:00,31.3,9.7,30.35,NW,322,3.0,7.0,40,0.00,,,0.00,Wunderground v.1.15,2013-01-22 17:02:00,
2013-01-22 12:04:00,31.4,9.8,30.35,NW,322,2.0,7.0,40,0.00,,,0.00,Wunderground v.1.15,2013-01-22 17:04:00,
2013-01-22 12:05:00,31.3,9.7,30.35,NW,322,5.0,7.0,40,0.00,,,0.00,Wunderground v.1.15,2013-01-22 17:05:00,
2013-01-22 12:06:00,31.4,9.3,30.35,NW,322,2.0,7.0,39,0.00,,,0.00,Wunderground v.1.15,2013-01-22 17:06:00,
2013-01-22 12:08:00,31.3,10.3,30.36,NW,322,1.0,7.0,41,0.00,,,0.00,Wunderground v.1.15,2013-01-22 17:08:00,
2013-01-22 12:10:00,31.3,10.3,30.35,NW,322,3.0,3.0,41,0.00,,,0.00,Wunderground v.1.15,2013-01-22 17:10:00,
2013-01-22 12:11:00,31.4,10.4,30.35,NW,322,2.0,5.0,41,0.00,,,0.00,Wunderground v.1.15,2013-01-22 17:11:00,
2013-01-22 12:13:00,31.6,10.0,30.35,NW,322,4.0,5.0,40,0.00,,,0.00,Wunderground v.1.15,2013-01-22 17:13:00,
2013-01-22 12:15:00,31.7,10.1,30.35,NW,322,3.0,5.0,40,0.00,,,0.00,Wunderground v.1.15,2013-01-22 17:15:00,
2013-01-22 12:16:00,31.7,9.5,30.35,NW,322,0.0,5.0,39,0.00,,,0.00,Wunderground v.1.15,2013-01-22 17:16:00,
2013-01-22 12:18:00,31.8,9.0,30.35,NW,322,3.0,5.0,38,0.00,,,0.00,Wunderground v.1.15,2013-01-22 17:18:00,
2013-01-22 12:20:00,31.9,9.7,30.34,NW,322,2.0,4.0,39,0.00,,,0.00,Wunderground v.1.15,2013-01-22 17:20:00,
2013-01-22 12:22:00,32.0,8.6,30.34,NW,322,3.0,5.0,37,0.00,,,0.00,Wunderground v.1.15,2013-01-22 17:22:00,
2013-01-22 12:23:00,32.0,9.8,30.35,NW,322,1.0,5.0,39,0.00,,,0.00,Wunderground v.1.15,2013-01-22 17:23:00,
2013-01-22 12:24:00,32.1,9.9,30.35,NW,322,4.0,5.0,39,0.00,,,0.00,Wunderground v.1.15,2013-01-22 17:24:00,
2013-01-22 12:25:00,32.2,9.4,30.35,NW,322,2.0,6.0,38,0.00,,,0.00,Wunderground v.1.15,2013-01-22 17:25:00,
2013-01-22 12:27:00,32.3,8.9,30.34,NW,323,6.0,7.0,37,0.00,,,0.00,Wunderground v.1.15,2013-01-22 17:27:00,
2013-01-22 12:28:00,32.4,10.2,30.34,NW,323,2.0,7.0,39,0.00,,,0.00,Wunderground v.1.15,2013-01-22 17:28:00,
2013-01-22 12:29:00,32.5,9.7,30.34,NW,324,4.0,7.0,38,0.00,,,0.00,Wunderground v.1.15,2013-01-22 17:29:00,
2013-01-22 12:30:00,32.5,9.1,30.34,NW,324,2.0,3.0,37,0.00,,,0.00,Wunderground v.1.15,2013-01-22 17:30:00,
2013-01-22 12:33:00,32.6,9.8,30.34,NW,323,2.0,3.0,38,0.00,,,0.00,Wunderground v.1.15,2013-01-22 17:33:00,
2013-01-22 12:34:00,32.7,9.3,30.33,NW,324,1.0,3.0,37,0.00,,,0.00,Wunderground v.1.15,2013-01-22 17:34:00,
2013-01-22 12:35:00,32.8,10.5,30.33,NW,323,1.0,4.0,39,0.00,,,0.00,Wunderground v.1.15,2013-01-22 17:35:00,
2013-01-22 12:38:00,32.9,8.8,30.32,NW,323,2.0,4.0,36,0.00,,,0.00,Wunderground v.1.15,2013-01-22 17:38:00,
2013-01-22 12:39:00,32.8,8.7,30.32,NW,323,1.0,4.0,36,0.00,,,0.00,Wunderground v.1.15,2013-01-22 17:39:00,
2013-01-22 12:41:00,32.8,9.9,30.32,NW,324,1.0,2.0,38,0.00,,,0.00,Wunderground v.1.15,2013-01-22 17:41:00,
2013-01-22 12:43:00,32.9,11.2,30.31,NW,324,1.0,2.0,40,0.00,,,0.00,Wunderground v.1.15,2013-01-22 17:43:00,
2013-01-22 12:44:00,32.9,11.2,30.31,NW,324,2.0,2.0,40,0.00,,,0.00,Wunderground v.1.15,2013-01-22 17:44:00,
2013-01-22 12:45:00,33.1,10.8,30.31,NW,324,0.0,2.0,39,0.00,,,0.00,Wunderground v.1.15,2013-01-22 17:45:00,
2013-01-22 12:46:00,33.3,9.8,30.31,NW,324,0.0,5.0,37,0.00,,,0.00,Wunderground v.1.15,2013-01-22 17:46:00,
2013-01-22 12:49:00,33.2,8.5,30.31,NW,323,1.0,5.0,35,0.00,,,0.00,Wunderground v.1.15,2013-01-22 17:49:00,
2013-01-22 12:50:00,33.0,8.9,30.31,NW,324,0.0,1.0,36,0.00,,,0.00,Wunderground v.1.15,2013-01-22 17:50:00,
2013-01-22 12:52:00,32.9,9.4,30.31,NW,324,3.0,3.0,37,0.00,,,0.00,Wunderground v.1.15,2013-01-22 17:52:00,
2013-01-22 12:54:00,32.9,9.4,30.31,NW,324,1.0,6.0,37,0.00,,,0.00,Wunderground v.1.15,2013-01-22 17:54:00,
2013-01-22 12:55:00,33.0,10.1,30.31,NW,324,0.0,6.0,38,0.00,,,0.00,Wunderground v.1.15,2013-01-22 17:55:00,
2013-01-22 12:58:00,33.2,10.3,30.32,NW,324,2.0,6.0,38,0.00,,,0.00,Wunderground v.1.15,2013-01-22 17:58:00,
2013-01-22 12:59:00,33.4,9.9,30.32,NW,324,3.0,6.0,37,0.00,,,0.00,Wunderground v.1.15,2013-01-22 17:59:00,
2013-01-22 13:00:00,33.4,9.9,30.32,NW,324,1.0,2.0,37,0.00,,,0.00,Wunderground v.1.15,2013-01-22 18:00:00,
2013-01-22 13:03:00,33.5,9.4,30.31,NW,324,2.0,6.0,36,0.00,,,0.00,Wunderground v.1.15,2013-01-22 18:03:00,
2013-01-22 13:05:00,33.5,9.4,30.31,NW,324,3.0,6.0,36,0.00,,,0.00,Wunderground v.1.15,2013-01-22 18:05:00,
2013-01-22 13:06:00,33.5,9.4,30.31,NW,324,2.0,6.0,36,0.00,,,0.00,Wunderground v.1.15,2013-01-22 18:06:00,
2013-01-22 13:08:00,33.5,8.7,30.31,NW,321,5.0,6.0,35,0.00,,,0.00,Wunderground v.1.15,2013-01-22 18:08:00,
2013-01-22 13:10:00,33.6,9.4,30.31,NW,321,3.0,4.0,36,0.00,,,0.00,Wunderground v.1.15,2013-01-22 18:10:00,
2013-01-22 13:11:00,33.7,10.1,30.31,NW,321,0.0,4.0,37,0.00,,,0.00,Wunderground v.1.15,2013-01-22 18:11:00,
2013-01-22 13:13:00,34.1,11.7,30.30,NW,321,3.0,5.0,39,0.00,,,0.00,Wunderground v.1.15,2013-01-22 18:13:00,
2013-01-22 13:15:00,34.2,9.4,30.30,NW,321,2.0,8.0,35,0.00,,,0.00,Wunderground v.1.15,2013-01-22 18:15:00,
2013-01-22 13:17:00,34.2,9.4,30.30,NW,321,3.0,8.0,35,0.00,,,0.00,Wunderground v.1.15,2013-01-22 18:17:00,
2013-01-22 13:18:00,34.1,8.6,30.30,NW,321,4.0,8.0,34,0.00,,,0.00,Wunderground v.1.15,2013-01-22 18:18:00,
2013-01-22 13:21:00,34.1,9.3,30.30,NW,321,4.0,4.0,35,0.00,,,0.00,Wunderground v.1.15,2013-01-22 18:21:00,
2013-01-22 13:22:00,34.1,9.9,30.30,NW,321,1.0,4.0,36,0.00,,,0.00,Wunderground v.1.15,2013-01-22 18:22:00,
2013-01-22 13:24:00,34.1,9.3,30.30,NW,321,2.0,4.0,35,0.00,,,0.00,Wunderground v.1.15,2013-01-22 18:24:00,
2013-01-22 13:27:00,34.3,9.4,30.30,NW,321,0.0,5.0,35,0.00,,,0.00,Wunderground v.1.15,2013-01-22 18:27:00,
2013-01-22 13:28:00,34.4,9.5,30.30,NW,321,4.0,5.0,35,0.00,,,0.00,Wunderground v.1.15,2013-01-22 18:28:00,
2013-01-22 13:29:00,34.4,8.9,30.30,NW,321,3.0,5.0,34,0.00,,,0.00,Wunderground v.1.15,2013-01-22 18:29:00,
2013-01-22 13:32:00,34.8,9.9,30.30,NW,321,3.0,4.0,35,0.00,,,0.00,Wunderground v.1.15,2013-01-22 18:32:00,
2013-01-22 13:33:00,35.0,8.7,30.29,NW,321,1.0,4.0,33,0.00,,,0.00,Wunderground v.1.15,2013-01-22 18:33:00,
2013-01-22 13:34:00,35.1,8.8,30.29,NW,321,4.0,4.0,33,0.00,,,0.00,Wunderground v.1.15,2013-01-22 18:34:00,
2013-01-22 13:37:00,35.4,8.4,30.29,NW,321,3.0,6.0,32,0.00,,,0.00,Wunderground v.1.15,2013-01-22 18:37:00,
2013-01-22 13:38:00,35.3,8.3,30.29,NW,321,1.0,6.0,32,0.00,,,0.00,Wunderground v.1.15,2013-01-22 18:38:00,
2013-01-22 13:40:00,35.3,8.3,30.29,NW,321,1.0,3.0,32,0.00,,,0.00,Wunderground v.1.15,2013-01-22 18:40:00,
2013-01-22 13:42:00,35.4,9.1,30.29,NW,321,2.0,3.0,33,0.00,,,0.00,Wunderground v.1.15,2013-01-22 18:42:00,
2013-01-22 13:45:00,35.3,7.6,30.28,NW,321,1.0,4.0,31,0.00,,,0.00,Wunderground v.1.15,2013-01-22 18:45:00,
2013-01-22 13:47:00,35.3,8.3,30.28,NW,321,3.0,7.0,32,0.00,,,0.00,Wunderground v.1.15,2013-01-22 18:47:00,
2013-01-22 13:48:00,35.2,8.2,30.28,NW,321,2.0,7.0,32,0.00,,,0.00,Wunderground v.1.15,2013-01-22 18:48:00,
2013-01-22 13:50:00,35.3,8.3,30.28,NW,321,5.0,5.0,32,0.00,,,0.00,Wunderground v.1.15,2013-01-22 18:50:00,
2013-01-22 13:52:00,35.3,8.3,30.27,NW,321,0.0,5.0,32,0.00,,,0.00,Wunderground v.1.15,2013-01-22 18:52:00,
2013-01-22 13:53:00,35.3,8.3,30.27,NW,321,1.0,5.0,32,0.00,,,0.00,Wunderground v.1.15,2013-01-22 18:53:00,
2013-01-22 13:55:00,35.2,8.2,30.27,NW,321,0.0,5.0,32,0.00,,,0.00,Wunderground v.1.15,2013-01-22 18:55:00,
2013-01-22 13:58:00,35.4,9.8,30.27,NW,321,0.0,5.0,34,0.00,,,0.00,Wunderground v.1.15,2013-01-22 18:58:00,
2013-01-22 13:59:00,35.5,8.5,30.27,NW,321,2.0,5.0,32,0.00,,,0.00,Wunderground v.1.15,2013-01-22 18:59:00,
2013-01-22 14:00:00,35.5,8.5,30.27,NW,321,4.0,4.0,32,0.00,,,0.00,Wunderground v.1.15,2013-01-22 19:00:00,
2013-01-22 14:03:00,35.8,10.1,30.27,NW,321,3.0,5.0,34,0.00,,,0.00,Wunderground v.1.15,2013-01-22 19:03:00,
2013-01-22 14:04:00,35.9,10.2,30.27,NW,321,5.0,6.0,34,0.00,,,0.00,Wunderground v.1.15,2013-01-22 19:04:00,
2013-01-22 14:05:00,35.9,8.9,30.27,NW,321,3.0,6.0,32,0.00,,,0.00,Wunderground v.1.15,2013-01-22 19:05:00,
2013-01-22 14:08:00,35.9,9.5,30.27,NW,321,2.0,6.0,33,0.00,,,0.00,Wunderground v.1.15,2013-01-22 19:08:00,
2013-01-22 14:09:00,36.0,8.9,30.27,NW,321,3.0,6.0,32,0.00,,,0.00,Wunderground v.1.15,2013-01-22 19:09:00,
2013-01-22 14:10:00,35.9,8.9,30.27,NW,321,3.0,5.0,32,0.00,,,0.00,Wunderground v.1.15,2013-01-22 19:10:00,
2013-01-22 14:14:00,35.7,9.4,30.28,NW,321,5.0,5.0,33,0.00,,,0.00,Wunderground v.1.15,2013-01-22 19:14:00,
2013-01-22 14:15:00,35.7,10.0,30.27,NW,321,3.0,6.0,34,0.00,,,0.00,Wunderground v.1.15,2013-01-22 19:15:00,
2013-01-22 14:18:00,35.7,9.4,30.28,NW,321,1.0,6.0,33,0.00,,,0.00,Wunderground v.1.15,2013-01-22 19:18:00,
2013-01-22 14:20:00,35.8,8.8,30.28,NW,321,3.0,4.0,32,0.00,,,0.00,Wunderground v.1.15,2013-01-22 19:20:00,
2013-01-22 14:21:00,35.8,9.5,30.28,NW,321,1.0,4.0,33,0.00,,,0.00,Wunderground v.1.15,2013-01-22 19:21:00,
2013-01-22 14:24:00,36.2,9.8,30.28,NW,321,6.0,6.0,33,0.00,,,0.00,Wunderground v.1.15,2013-01-22 19:24:00,
2013-01-22 14:25:00,36.2,9.1,30.28,NW,321,0.0,6.0,32,0.00,,,0.00,Wunderground v.1.15,2013-01-22 19:25:00,
2013-01-22 14:26:00,36.2,8.4,30.28,NW,321,1.0,6.0,31,0.00,,,0.00,Wunderground v.1.15,2013-01-22 19:26:00,
2013-01-22 14:29:00,36.4,10.0,30.28,NW,321,4.0,7.0,33,0.00,,,0.00,Wunderground v.1.15,2013-01-22 19:29:00,
2013-01-22 14:31:00,36.4,9.3,30.28,NW,321,4.0,4.0,32,0.00,,,0.00,Wunderground v.1.15,2013-01-22 19:31:00,
2013-01-22 14:34:00,36.1,9.0,30.28,NW,321,1.0,5.0,32,0.00,,,0.00,Wunderground v.1.15,2013-01-22 19:34:00,
2013-01-22 14:35:00,36.0,8.9,30.28,NW,321,2.0,5.0,32,0.00,,,0.00,Wunderground v.1.15,2013-01-22 19:35:00,
2013-01-22 14:37:00,36.0,10.3,30.28,NW,321,1.0,5.0,34,0.00,,,0.00,Wunderground v.1.15,2013-01-22 19:37:00,
2013-01-22 14:38:00,36.0,10.3,30.28,NW,321,2.0,5.0,34,0.00,,,0.00,Wunderground v.1.15,2013-01-22 19:38:00,
2013-01-22 14:39:00,36.1,9.0,30.28,NW,321,2.0,5.0,32,0.00,,,0.00,Wunderground v.1.15,2013-01-22 19:39:00,
2013-01-22 14:40:00,36.1,9.7,30.28,NW,321,3.0,3.0,33,0.00,,,0.00,Wunderground v.1.15,2013-01-22 19:40:00,
2013-01-22 14:42:00,36.0,8.2,30.28,NW,321,2.0,10.0,31,0.00,,,0.00,Wunderground v.1.15,2013-01-22 19:42:00,
2013-01-22 14:43:00,36.0,8.2,30.28,NW,321,3.0,10.0,31,0.00,,,0.00,Wunderground v.1.15,2013-01-22 19:43:00,
2013-01-22 14:44:00,35.9,8.9,30.28,NW,321,4.0,10.0,32,0.00,,,0.00,Wunderground v.1.15,2013-01-22 19:44:00,
2013-01-22 14:45:00,36.0,9.6,30.28,NW,321,1.0,10.0,33,0.00,,,0.00,Wunderground v.1.15,2013-01-22 19:45:00,
2013-01-22 14:48:00,36.0,8.9,30.28,NW,321,2.0,10.0,32,0.00,,,0.00,Wunderground v.1.15,2013-01-22 19:48:00,
2013-01-22 14:49:00,35.9,8.9,30.28,NW,321,0.0,3.0,32,0.00,,,0.00,Wunderground v.1.15,2013-01-22 19:49:00,
2013-01-22 14:50:00,35.9,8.9,30.28,NW,321,5.0,5.0,32,0.00,,,0.00,Wunderground v.1.15,2013-01-22 19:50:00,
2013-01-22 14:53:00,36.0,8.2,30.28,NW,321,3.0,5.0,31,0.00,,,0.00,Wunderground v.1.15,2013-01-22 19:53:00,
2013-01-22 14:55:00,36.1,8.3,30.28,NW,321,1.0,5.0,31,0.00,,,0.00,Wunderground v.1.15,2013-01-22 19:55:00,
2013-01-22 14:58:00,36.1,9.0,30.28,NW,321,2.0,5.0,32,0.00,,,0.00,Wunderground v.1.15,2013-01-22 19:58:00,
2013-01-22 14:59:00,36.1,9.7,30.28,NW,321,2.0,5.0,33,0.00,,,0.00,Wunderground v.1.15,2013-01-22 19:59:00,
2013-01-22 15:00:00,36.2,10.5,30.28,NW,321,3.0,3.0,34,0.00,,,0.00,Wunderground v.1.15,2013-01-22 20:00:00,
2013-01-22 15:04:00,36.4,10.0,30.28,NW,318,8.0,9.0,33,0.00,,,0.00,Wunderground v.1.15,2013-01-22 20:04:00,
2013-01-22 15:05:00,36.5,8.7,30.28,NW,313,2.0,10.0,31,0.00,,,0.00,Wunderground v.1.15,2013-01-22 20:05:00,
2013-01-22 15:06:00,36.5,8.7,30.28,NW,313,4.0,10.0,31,0.00,,,0.00,Wunderground v.1.15,2013-01-22 20:06:00,
2013-01-22 15:09:00,36.0,8.9,30.28,NW,313,1.0,10.0,32,0.00,,,0.00,Wunderground v.1.15,2013-01-22 20:09:00,
2013-01-22 15:10:00,35.9,8.9,30.28,NW,313,3.0,5.0,32,0.00,,,0.00,Wunderground v.1.15,2013-01-22 20:10:00,
2013-01-22 15:11:00,35.9,8.9,30.28,NW,313,3.0,5.0,32,0.00,,,0.00,Wunderground v.1.15,2013-01-22 20:11:00,
2013-01-22 15:12:00,35.9,8.2,30.28,NW,313,5.0,5.0,31,0.00,,,0.00,Wunderground v.1.15,2013-01-22 20:12:00,
2013-01-22 15:15:00,35.6,7.9,30.28,NW,313,0.0,7.0,31,0.00,,,0.00,Wunderground v.1.15,2013-01-22 20:15:00,
2013-01-22 15:16:00,35.6,7.9,30.28,NW,313,1.0,7.0,31,0.00,,,0.00,Wunderground v.1.15,2013-01-22 20:16:00,
2013-01-22 15:17:00,35.5,8.5,30.28,NW,313,3.0,7.0,32,0.00,,,0.00,Wunderground v.1.15,2013-01-22 20:17:00,
2013-01-22 15:20:00,35.4,9.8,30.28,NW,313,1.0,3.0,34,0.00,,,0.00,Wunderground v.1.15,2013-01-22 20:20:00,
2013-01-22 15:21:00,35.4,8.4,30.28,NW,313,1.0,4.0,32,0.00,,,0.00,Wunderground v.1.15,2013-01-22 20:21:00,
2013-01-22 15:22:00,35.5,9.2,30.28,NW,313,1.0,4.0,33,0.00,,,0.00,Wunderground v.1.15,2013-01-22 20:22:00,
2013-01-22 15:25:00,35.8,10.1,30.29,NW,313,4.0,4.0,34,0.00,,,0.00,Wunderground v.1.15,2013-01-22 20:25:00,
2013-01-22 15:26:00,35.9,9.5,30.29,NW,313,5.0,5.0,33,0.00,,,0.00,Wunderground v.1.15,2013-01-22 20:26:00,
2013-01-22 15:28:00,36.1,8.3,30.29,NW,313,4.0,7.0,31,0.00,,,0.00,Wunderground v.1.15,2013-01-22 20:28:00,
2013-01-22 15:30:00,36.2,9.8,30.29,NW,313,3.0,6.0,33,0.00,,,0.00,Wunderground v.1.15,2013-01-22 20:30:00,
2013-01-22 15:31:00,36.3,10.6,30.29,NW,313,5.0,6.0,34,0.00,,,0.00,Wunderground v.1.15,2013-01-22 20:31:00,
2013-01-22 15:33:00,36.3,8.5,30.29,NW,313,3.0,6.0,31,0.00,,,0.00,Wunderground v.1.15,2013-01-22 20:33:00,
2013-01-22 15:36:00,36.1,9.0,30.29,NW,313,1.0,6.0,32,0.00,,,0.00,Wunderground v.1.15,2013-01-22 20:36:00,
2013-01-22 15:38:00,36.1,9.7,30.29,NW,313,2.0,6.0,33,0.00,,,0.00,Wunderground v.1.15,2013-01-22 20:38:00,
2013-01-22 15:39:00,36.1,9.7,30.29,NW,313,0.0,6.0,33,0.00,,,0.00,Wunderground v.1.15,2013-01-22 20:39:00,
2013-01-22 15:41:00,36.3,9.9,30.29,NW,313,2.0,4.0,33,0.00,,,0.00,Wunderground v.1.15,2013-01-22 20:41:00,
2013-01-22 15:42:00,36.3,9.9,30.29,NW,313,2.0,4.0,33,0.00,,,0.00,Wunderground v.1.15,2013-01-22 20:42:00,
2013-01-22 15:43:00,36.3,9.2,30.29,NW,313,2.0,4.0,32,0.00,,,0.00,Wunderground v.1.15,2013-01-22 20:43:00,
2013-01-22 15:44:00,36.2,8.4,30.29,NW,313,1.0,4.0,31,0.00,,,0.00,Wunderground v.1.15,2013-01-22 20:44:00,
2013-01-22 15:47:00,36.2,9.8,30.29,NW,313,3.0,4.0,33,0.00,,,0.00,Wunderground v.1.15,2013-01-22 20:47:00,
2013-01-22 15:49:00,36.2,9.1,30.29,NW,313,2.0,4.0,32,0.00,,,0.00,Wunderground v.1.15,2013-01-22 20:49:00,
2013-01-22 15:50:00,36.2,9.1,30.29,NW,313,2.0,3.0,32,0.00,,,0.00,Wunderground v.1.15,2013-01-22 20:50:00,
2013-01-22 15:52:00,36.1,9.0,30.29,NW,313,2.0,3.0,32,0.00,,,0.00,Wunderground v.1.15,2013-01-22 20:52:00,
2013-01-22 15:54:00,36.1,9.0,30.29,NW,313,0.0,3.0,32,0.00,,,0.00,Wunderground v.1.15,2013-01-22 20:54:00,
2013-01-22 15:55:00,36.1,9.0,30.29,NW,313,1.0,3.0,32,0.00,,,0.00,Wunderground v.1.15,2013-01-22 20:55:00,
2013-01-22 15:57:00,36.3,10.6,30.29,NW,313,2.0,4.0,34,0.00,,,0.00,Wunderground v.1.15,2013-01-22 20:57:00,
2013-01-22 16:00:00,36.4,9.3,30.29,NW,313,3.0,4.0,32,0.00,,,0.00,Wunderground v.1.15,2013-01-22 21:00:00,
2013-01-22 16:03:00,36.1,9.0,30.29,NW,313,3.0,4.0,32,0.00,,,0.00,Wunderground v.1.15,2013-01-22 21:03:00,
2013-01-22 16:05:00,36.0,8.9,30.29,NW,313,5.0,5.0,32,0.00,,,0.00,Wunderground v.1.15,2013-01-22 21:05:00,
2013-01-22 16:08:00,35.9,8.9,30.29,NW,313,2.0,8.0,32,0.00,,,0.00,Wunderground v.1.15,2013-01-22 21:08:00,
2013-01-22 16:10:00,35.8,8.8,30.29,NW,313,0.0,3.0,32,0.00,,,0.00,Wunderground v.1.15,2013-01-22 21:10:00,
2013-01-22 16:13:00,35.5,8.5,30.29,NW,313,2.0,5.0,32,0.00,,,0.00,Wunderground v.1.15,2013-01-22 21:13:00,
2013-01-22 16:15:00,35.3,9.0,30.29,NW,313,1.0,5.0,33,0.00,,,0.00,Wunderground v.1.15,2013-01-22 21:15:00,
2013-01-22 16:16:00,35.3,9.7,30.29,NW,313,2.0,5.0,34,0.00,,,0.00,Wunderground v.1.15,2013-01-22 21:16:00,
2013-01-22 16:18:00,35.3,9.7,30.28,NW,313,2.0,5.0,34,0.00,,,0.00,Wunderground v.1.15,2013-01-22 21:18:00,
2013-01-22 16:20:00,35.2,8.9,30.29,NW,313,2.0,2.0,33,0.00,,,0.00,Wunderground v.1.15,2013-01-22 21:20:00,
2013-01-22 16:21:00,35.2,9.6,30.28,NW,313,3.0,3.0,34,0.00,,,0.00,Wunderground v.1.15,2013-01-22 21:21:00,
2013-01-22 16:23:00,35.2,10.2,30.28,NW,313,0.0,3.0,35,0.00,,,0.00,Wunderground v.1.15,2013-01-22 21:23:00,
2013-01-22 16:25:00,35.3,9.7,30.29,NW,313,0.0,3.0,34,0.00,,,0.00,Wunderground v.1.15,2013-01-22 21:25:00,
2013-01-22 16:27:00,35.4,9.8,30.29,NW,313,2.0,3.0,34,0.00,,,0.00,Wunderground v.1.15,2013-01-22 21:27:00,
2013-01-22 16:29:00,35.4,10.4,30.28,NW,313,1.0,3.0,35,0.00,,,0.00,Wunderground v.1.15,2013-01-22 21:29:00,
2013-01-22 16:30:00,35.4,9.1,30.29,NW,313,1.0,3.0,33,0.00,,,0.00,Wunderground v.1.15,2013-01-22 21:30:00,
2013-01-22 16:31:00,35.4,9.1,30.29,NW,313,3.0,3.0,33,0.00,,,0.00,Wunderground v.1.15,2013-01-22 21:31:00,
2013-01-22 16:32:00,35.3,9.0,30.29,NW,313,3.0,3.0,33,0.00,,,0.00,Wunderground v.1.15,2013-01-22 21:32:00,
2013-01-22 16:35:00,35.3,9.0,30.29,NW,313,0.0,4.0,33,0.00,,,0.00,Wunderground v.1.15,2013-01-22 21:35:00,
2013-01-22 16:36:00,35.3,9.0,30.29,NW,313,0.0,4.0,33,0.00,,,0.00,Wunderground v.1.15,2013-01-22 21:36:00,
2013-01-22 16:38:00,35.3,9.0,30.29,NW,313,0.0,4.0,33,0.00,,,0.00,Wunderground v.1.15,2013-01-22 21:38:00,
2013-01-22 16:40:00,35.5,9.9,30.29,NW,313,1.0,2.0,34,0.00,,,0.00,Wunderground v.1.15,2013-01-22 21:40:00,
2013-01-22 16:41:00,35.5,9.9,30.29,NW,313,0.0,2.0,34,0.00,,,0.00,Wunderground v.1.15,2013-01-22 21:41:00,
2013-01-22 16:42:00,35.5,9.9,30.29,NW,313,0.0,2.0,34,0.00,,,0.00,Wunderground v.1.15,2013-01-22 21:42:00,
2013-01-22 16:43:00,35.5,9.9,30.29,NW,313,0.0,2.0,34,0.00,,,0.00,Wunderground v.1.15,2013-01-22 21:43:00,
2013-01-22 16:45:00,35.6,9.3,30.29,NW,313,1.0,3.0,33,0.00,,,0.00,Wunderground v.1.15,2013-01-22 21:45:00,
2013-01-22 16:47:00,35.7,8.7,30.29,NW,313,4.0,5.0,32,0.00,,,0.00,Wunderground v.1.15,2013-01-22 21:47:00,
2013-01-22 16:48:00,35.7,9.4,30.29,NW,313,2.0,5.0,33,0.00,,,0.00,Wunderground v.1.15,2013-01-22 21:48:00,
2013-01-22 16:50:00,35.7,10.0,30.29,NW,313,0.0,2.0,34,0.00,,,0.00,Wunderground v.1.15,2013-01-22 21:50:00,
2013-01-22 16:52:00,35.7,9.4,30.29,NW,313,0.0,2.0,33,0.00,,,0.00,Wunderground v.1.15,2013-01-22 21:52:00,
2013-01-22 16:53:00,35.7,9.4,30.29,NW,313,0.0,2.0,33,0.00,,,0.00,Wunderground v.1.15,2013-01-22 21:53:00,
2013-01-22 16:56:00,35.8,8.8,30.29,NW,313,0.0,2.0,32,0.00,,,0.00,Wunderground v.1.15,2013-01-22 21:56:00,
2013-01-22 16:58:00,35.8,9.5,30.29,NW,313,3.0,3.0,33,0.00,,,0.00,Wunderground v.1.15,2013-01-22 21:58:00,
2013-01-22 17:02:00,35.6,8.6,30.29,NW,313,1.0,3.0,32,0.00,,,0.00,Wunderground v.1.15,2013-01-22 22:02:00,
2013-01-22 17:03:00,35.6,9.3,30.29,NW,313,1.0,3.0,33,0.00,,,0.00,Wunderground v.1.15,2013-01-22 22:03:00,
2013-01-22 17:04:00,35.6,9.3,30.29,NW,313,4.0,4.0,33,0.00,,,0.00,Wunderground v.1.15,2013-01-22 22:04:00,
2013-01-22 17:08:00,35.6,8.6,30.29,NW,313,3.0,4.0,32,0.00,,,0.00,Wunderground v.1.15,2013-01-22 22:08:00,
2013-01-22 17:09:00,35.6,9.3,30.29,NW,313,1.0,4.0,33,0.00,,,0.00,Wunderground v.1.15,2013-01-22 22:09:00,
2013-01-22 17:13:00,35.4,8.4,30.28,NW,313,1.0,3.0,32,0.00,,,0.00,Wunderground v.1.15,2013-01-22 22:13:00,
2013-01-22 17:14:00,35.3,8.3,30.28,NW,313,1.0,3.0,32,0.00,,,0.00,Wunderground v.1.15,2013-01-22 22:14:00,
2013-01-22 17:18:00,35.1,8.8,30.28,NW,313,0.0,3.0,33,0.00,,,0.00,Wunderground v.1.15,2013-01-22 22:18:00,
2013-01-22 17:19:00,35.1,10.8,30.28,NW,313,2.0,3.0,36,0.00,,,0.00,Wunderground v.1.15,2013-01-22 22:19:00,
2013-01-22 17:20:00,35.1,10.8,30.28,NW,313,1.0,1.0,36,0.00,,,0.00,Wunderground v.1.15,2013-01-22 22:20:00,
2013-01-22 17:23:00,34.8,9.9,30.29,NW,313,1.0,3.0,35,0.00,,,0.00,Wunderground v.1.15,2013-01-22 22:23:00,
2013-01-22 17:24:00,34.8,9.9,30.29,NW,313,1.0,3.0,35,0.00,,,0.00,Wunderground v.1.15,2013-01-22 22:24:00,
2013-01-22 17:25:00,34.6,9.7,30.29,NW,313,2.0,3.0,35,0.00,,,0.00,Wunderground v.1.15,2013-01-22 22:25:00,
2013-01-22 17:29:00,34.4,10.8,30.29,NW,313,1.0,4.0,37,0.00,,,0.00,Wunderground v.1.15,2013-01-22 22:29:00,
2013-01-22 17:30:00,34.4,10.8,30.28,NW,313,0.0,1.0,37,0.00,,,0.00,Wunderground v.1.15,2013-01-22 22:30:00,
2013-01-22 17:34:00,34.4,10.2,30.29,NW,313,0.0,4.0,36,0.00,,,0.00,Wunderground v.1.15,2013-01-22 22:34:00,
2013-01-22 17:35:00,34.4,12.0,30.29,NW,313,3.0,4.0,39,0.00,,,0.00,Wunderground v.1.15,2013-01-22 22:35:00,
2013-01-22 17:36:00,34.4,12.0,30.29,NW,313,3.0,4.0,39,0.00,,,0.00,Wunderground v.1.15,2013-01-22 22:36:00,
2013-01-22 17:39:00,34.4,10.8,30.30,NW,313,2.0,4.0,37,0.00,,,0.00,Wunderground v.1.15,2013-01-22 22:39:00,
2013-01-22 17:40:00,34.4,10.2,30.30,NW,313,1.0,5.0,36,0.00,,,0.00,Wunderground v.1.15,2013-01-22 22:40:00,
2013-01-22 17:41:00,34.4,10.2,30.30,NW,313,1.0,5.0,36,0.00,,,0.00,Wunderground v.1.15,2013-01-22 22:41:00,
2013-01-22 17:44:00,34.3,10.1,30.30,NW,313,2.0,5.0,36,0.00,,,0.00,Wunderground v.1.15,2013-01-22 22:44:00,
2013-01-22 17:46:00,34.2,10.6,30.30,NW,313,1.0,5.0,37,0.00,,,0.00,Wunderground v.1.15,2013-01-22 22:46:00,
2013-01-22 17:47:00,34.2,10.6,30.30,NW,313,2.0,5.0,37,0.00,,,0.00,Wunderground v.1.15,2013-01-22 22:47:00,
2013-01-22 17:49:00,34.1,9.9,30.30,NW,313,1.0,5.0,36,0.00,,,0.00,Wunderground v.1.15,2013-01-22 22:49:00,
2013-01-22 17:51:00,33.9,9.7,30.30,NW,313,2.0,4.0,36,0.00,,,0.00,Wunderground v.1.15,2013-01-22 22:51:00,
2013-01-22 17:53:00,33.9,10.3,30.30,NW,313,3.0,4.0,37,0.00,,,0.00,Wunderground v.1.15,2013-01-22 22:53:00,
2013-01-22 17:55:00,33.7,9.5,30.30,NW,313,2.0,5.0,36,0.00,,,0.00,Wunderground v.1.15,2013-01-22 22:55:00,
2013-01-22 17:57:00,33.5,10.0,30.30,NW,313,5.0,7.0,37,0.00,,,0.00,Wunderground v.1.15,2013-01-22 22:57:00,
2013-01-22 17:58:00,33.4,9.3,30.31,NW,313,2.0,7.0,36,0.00,,,0.00,Wunderground v.1.15,2013-01-22 22:58:00,
2013-01-22 18:00:00,33.3,8.6,30.31,NW,313,5.0,5.0,35,0.00,,,0.00,Wunderground v.1.15,2013-01-22 23:00:00,
2013-01-22 18:03:00,33.1,9.0,30.30,NW,313,2.0,6.0,36,0.00,,,0.00,Wunderground v.1.15,2013-01-22 23:03:00,
2013-01-22 18:05:00,32.9,7.6,30.30,NW,313,2.0,6.0,34,0.00,,,0.00,Wunderground v.1.15,2013-01-22 23:05:00,
2013-01-22 18:08:00,32.6,7.9,30.31,NW,313,2.0,6.0,35,0.00,,,0.00,Wunderground v.1.15,2013-01-22 23:08:00,
2013-01-22 18:09:00,32.6,7.9,30.31,NW,313,5.0,7.0,35,0.00,,,0.00,Wunderground v.1.15,2013-01-22 23:09:00,
2013-01-22 18:10:00,32.6,7.9,30.31,NW,313,4.0,4.0,35,0.00,,,0.00,Wunderground v.1.15,2013-01-22 23:10:00,
2013-01-22 18:13:00,32.3,7.7,30.31,NW,313,2.0,4.0,35,0.00,,,0.00,Wunderground v.1.15,2013-01-22 23:13:00,
2013-01-22 18:15:00,32.2,7.6,30.31,NW,313,2.0,4.0,35,0.00,,,0.00,Wunderground v.1.15,2013-01-22 23:15:00,
2013-01-22 18:18:00,32.0,7.4,30.31,NW,313,1.0,4.0,35,0.00,,,0.00,Wunderground v.1.15,2013-01-22 23:18:00,
2013-01-22 18:19:00,32.0,7.4,30.31,NW,313,3.0,4.0,35,0.00,,,0.00,Wunderground v.1.15,2013-01-22 23:19:00,
2013-01-22 18:20:00,31.9,7.3,30.32,NW,313,2.0,2.0,35,0.00,,,0.00,Wunderground v.1.15,2013-01-22 23:20:00,
2013-01-22 18:24:00,31.6,7.0,30.31,NW,313,3.0,4.0,35,0.00,,,0.00,Wunderground v.1.15,2013-01-22 23:24:00,
2013-01-22 18:25:00,31.5,7.6,30.32,NW,313,3.0,4.0,36,0.00,,,0.00,Wunderground v.1.15,2013-01-22 23:25:00,
2013-01-22 18:29:00,31.2,7.3,30.32,NW,313,1.0,5.0,36,0.00,,,0.00,Wunderground v.1.15,2013-01-22 23:29:00,
2013-01-22 18:30:00,31.2,7.3,30.32,NW,313,2.0,2.0,36,0.00,,,0.00,Wunderground v.1.15,2013-01-22 23:30:00,
2013-01-22 18:31:00,31.1,6.6,30.32,NW,313,2.0,2.0,35,0.00,,,0.00,Wunderground v.1.15,2013-01-22 23:31:00,
2013-01-22 18:35:00,30.8,6.3,30.32,NW,313,1.0,2.0,35,0.00,,,0.00,Wunderground v.1.15,2013-01-22 23:35:00,
2013-01-22 18:36:00,30.7,6.2,30.32,NW,313,2.0,3.0,35,0.00,,,0.00,Wunderground v.1.15,2013-01-22 23:36:00,
2013-01-22 18:40:00,30.5,6.7,30.32,NW,313,2.0,2.0,36,0.00,,,0.00,Wunderground v.1.15,2013-01-22 23:40:00,
2013-01-22 18:42:00,30.5,6.7,30.32,NW,313,4.0,4.0,36,0.00,,,0.00,Wunderground v.1.15,2013-01-22 23:42:00,
2013-01-22 18:45:00,30.3,6.5,30.32,NW,313,1.0,4.0,36,0.00,,,0.00,Wunderground v.1.15,2013-01-22 23:45:00,
2013-01-22 18:47:00,30.3,6.5,30.33,NW,313,0.0,4.0,36,0.00,,,0.00,Wunderground v.1.15,2013-01-22 23:47:00,
2013-01-22 18:50:00,30.2,6.4,30.32,NW,313,2.0,3.0,36,0.00,,,0.00,Wunderground v.1.15,2013-01-22 23:50:00,
2013-01-22 18:51:00,30.2,6.4,30.32,NW,313,1.0,3.0,36,0.00,,,0.00,Wunderground v.1.15,2013-01-22 23:51:00,
2013-01-22 18:52:00,30.2,7.0,30.32,NW,313,0.0,3.0,37,0.00,,,0.00,Wunderground v.1.15,2013-01-22 23:52:00,
2013-01-22 18:56:00,30.0,6.8,30.33,NW,313,0.0,3.0,37,0.00,,,0.00,Wunderground v.1.15,2013-01-22 23:56:00,
2013-01-22 18:57:00,30.0,7.4,30.33,NW,313,0.0,3.0,38,0.00,,,0.00,Wunderground v.1.15,2013-01-22 23:57:00,
2013-01-22 18:58:00,30.0,6.8,30.33,NW,313,0.0,3.0,37,0.00,,,0.00,Wunderground v.1.15,2013-01-22 23:58:00,
2013-01-22 19:01:00,29.8,6.7,30.34,NW,313,0.0,0.0,37,0.00,,,0.00,Wunderground v.1.15,2013-01-23 00:01:00,
2013-01-22 19:03:00,29.7,7.2,30.34,NW,313,0.0,0.0,38,0.00,,,0.00,Wunderground v.1.15,2013-01-23 00:03:00,
2013-01-22 19:07:00,29.6,6.5,30.34,NW,313,0.0,2.0,37,0.00,,,0.00,Wunderground v.1.15,2013-01-23 00:07:00,
2013-01-22 19:08:00,29.6,6.5,30.34,NW,313,0.0,2.0,37,0.00,,,0.00,Wunderground v.1.15,2013-01-23 00:08:00,
2013-01-22 19:12:00,29.4,5.7,30.34,NW,313,0.0,1.0,36,0.00,,,0.00,Wunderground v.1.15,2013-01-23 00:12:00,
2013-01-22 19:13:00,29.4,5.7,30.34,NW,313,0.0,1.0,36,0.00,,,0.00,Wunderground v.1.15,2013-01-23 00:13:00,
2013-01-22 19:18:00,29.4,5.7,30.35,NW,313,0.0,1.0,36,0.00,,,0.00,Wunderground v.1.15,2013-01-23 00:18:00,
2013-01-22 19:19:00,29.4,5.7,30.35,NW,313,0.0,1.0,36,0.00,,,0.00,Wunderground v.1.15,2013-01-23 00:19:00,
2013-01-22 19:23:00,29.3,5.6,30.35,NW,313,2.0,3.0,36,0.00,,,0.00,Wunderground v.1.15,2013-01-23 00:23:00,
2013-01-22 19:24:00,29.4,5.1,30.35,NW,313,0.0,3.0,35,0.00,,,0.00,Wunderground v.1.15,2013-01-23 00:24:00,
2013-01-22 19:28:00,29.4,5.7,30.35,NW,313,0.0,3.0,36,0.00,,,0.00,Wunderground v.1.15,2013-01-23 00:28:00,
2013-01-22 19:29:00,29.4,5.7,30.35,NW,313,0.0,3.0,36,0.00,,,0.00,Wunderground v.1.15,2013-01-23 00:29:00,
2013-01-22 19:30:00,29.4,5.1,30.34,NW,313,1.0,2.0,35,0.00,,,0.00,Wunderground v.1.15,2013-01-23 00:30:00,
2013-01-22 19:33:00,29.3,5.6,30.33,NW,313,0.0,2.0,36,0.00,,,0.00,Wunderground v.1.15,2013-01-23 00:33:00,
2013-01-22 19:34:00,29.3,5.6,30.33,NW,313,1.0,2.0,36,0.00,,,0.00,Wunderground v.1.15,2013-01-23 00:34:00,
2013-01-22 19:37:00,29.2,5.5,30.33,NW,313,0.0,2.0,36,0.00,,,0.00,Wunderground v.1.15,2013-01-23 00:37:00,
2013-01-22 19:39:00,29.2,5.5,30.33,NW,313,0.0,2.0,36,0.00,,,0.00,Wunderground v.1.15,2013-01-23 00:39:00,
2013-01-22 19:40:00,29.2,5.5,30.34,NW,313,2.0,2.0,36,0.00,,,0.00,Wunderground v.1.15,2013-01-23 00:40:00,
2013-01-22 19:42:00,29.2,6.1,30.34,NW,313,0.0,2.0,37,0.00,,,0.00,Wunderground v.1.15,2013-01-23 00:42:00,
2013-01-22 19:44:00,29.3,5.6,30.34,NW,313,0.0,2.0,36,0.00,,,0.00,Wunderground v.1.15,2013-01-23 00:44:00,
2013-01-22 19:45:00,29.3,6.2,30.34,NW,313,0.0,2.0,37,0.00,,,0.00,Wunderground v.1.15,2013-01-23 00:45:00,
2013-01-22 19:47:00,29.4,5.7,30.34,NW,313,0.0,2.0,36,0.00,,,0.00,Wunderground v.1.15,2013-01-23 00:47:00,
2013-01-22 19:49:00,29.4,8.0,30.34,NW,313,0.0,2.0,40,0.00,,,0.00,Wunderground v.1.15,2013-01-23 00:49:00,
2013-01-22 19:50:00,29.5,9.2,30.34,NW,313,0.0,0.0,42,0.00,,,0.00,Wunderground v.1.15,2013-01-23 00:50:00,
2013-01-22 19:52:00,29.6,8.7,30.34,NW,313,1.0,1.0,41,0.00,,,0.00,Wunderground v.1.15,2013-01-23 00:52:00,
2013-01-22 19:55:00,29.7,9.4,30.34,NW,313,0.0,3.0,42,0.00,,,0.00,Wunderground v.1.15,2013-01-23 00:55:00,
2013-01-22 19:57:00,29.8,7.8,30.34,NW,313,0.0,3.0,39,0.00,,,0.00,Wunderground v.1.15,2013-01-23 00:57:00,
2013-01-22 20:00:00,29.8,6.1,30.34,NW,313,0.0,0.0,36,0.00,,,0.00,Wunderground v.1.15,2013-01-23 01:00:00,
2013-01-22 20:02:00,29.9,6.7,30.34,NW,313,0.0,0.0,37,0.00,,,0.00,Wunderground v.1.15,2013-01-23 01:02:00,
2013-01-22 20:05:00,30.0,7.4,30.34,NW,313,0.0,0.0,38,0.00,,,0.00,Wunderground v.1.15,2013-01-23 01:05:00,
2013-01-22 20:06:00,30.0,7.4,30.34,NW,313,0.0,0.0,38,0.00,,,0.00,Wunderground v.1.15,2013-01-23 01:06:00,
2013-01-22 20:07:00,30.0,8.0,30.35,NW,313,0.0,0.0,39,0.00,,,0.00,Wunderground v.1.15,2013-01-23 01:07:00,
2013-01-22 20:11:00,30.1,9.2,30.35,NW,313,0.0,0.0,41,0.00,,,0.00,Wunderground v.1.15,2013-01-23 01:11:00,
2013-01-22 20:13:00,30.1,8.1,30.35,NW,313,0.0,0.0,39,0.00,,,0.00,Wunderground v.1.15,2013-01-23 01:13:00,
2013-01-22 20:16:00,30.2,6.4,30.35,NW,313,2.0,3.0,36,0.00,,,0.00,Wunderground v.1.15,2013-01-23 01:16:00,
2013-01-22 20:17:00,30.2,7.6,30.35,NW,313,1.0,3.0,38,0.00,,,0.00,Wunderground v.1.15,2013-01-23 01:17:00,
2013-01-22 20:18:00,30.2,7.6,30.35,NW,313,2.0,3.0,38,0.00,,,0.00,Wunderground v.1.15,2013-01-23 01:18:00,
2013-01-22 20:22:00,30.4,6.0,30.34,NW,313,0.0,1.0,35,0.00,,,0.00,Wunderground v.1.15,2013-01-23 01:22:00,
2013-01-22 20:23:00,30.4,6.6,30.34,NW,313,0.0,1.0,36,0.00,,,0.00,Wunderground v.1.15,2013-01-23 01:23:00,
2013-01-22 20:27:00,30.5,7.3,30.34,NW,313,1.0,3.0,37,0.00,,,0.00,Wunderground v.1.15,2013-01-23 01:27:00,
2013-01-22 20:28:00,30.6,8.5,30.34,NW,313,0.0,3.0,39,0.00,,,0.00,Wunderground v.1.15,2013-01-23 01:28:00,
2013-01-22 20:32:00,30.6,7.4,30.34,NW,313,0.0,1.0,37,0.00,,,0.00,Wunderground v.1.15,2013-01-23 01:32:00,
2013-01-22 20:33:00,30.6,6.8,30.35,NW,313,0.0,1.0,36,0.00,,,0.00,Wunderground v.1.15,2013-01-23 01:33:00,
2013-01-22 20:38:00,30.6,8.0,30.35,NW,313,0.0,1.0,38,0.00,,,0.00,Wunderground v.1.15,2013-01-23 01:38:00,
2013-01-22 20:39:00,30.6,8.0,30.35,NW,313,0.0,1.0,38,0.00,,,0.00,Wunderground v.1.15,2013-01-23 01:39:00,
2013-01-22 20:43:00,30.6,9.1,30.35,NW,313,0.0,1.0,40,0.00,,,0.00,Wunderground v.1.15,2013-01-23 01:43:00,
2013-01-22 20:44:00,30.6,8.5,30.35,NW,313,0.0,1.0,39,0.00,,,0.00,Wunderground v.1.15,2013-01-23 01:44:00,
2013-01-22 20:48:00,30.6,8.0,30.35,NW,313,0.0,1.0,38,0.00,,,0.00,Wunderground v.1.15,2013-01-23 01:48:00,
2013-01-22 20:50:00,30.6,8.0,30.35,NW,313,0.0,0.0,38,0.00,,,0.00,Wunderground v.1.15,2013-01-23 01:50:00,
2013-01-22 20:53:00,30.6,9.1,30.34,NW,313,1.0,1.0,40,0.00,,,0.00,Wunderground v.1.15,2013-01-23 01:53:00,
2013-01-22 20:55:00,30.6,9.7,30.34,NW,313,1.0,2.0,41,0.00,,,0.00,Wunderground v.1.15,2013-01-23 01:55:00,
2013-01-22 20:59:00,30.6,9.1,30.34,NW,313,0.0,2.0,40,0.00,,,0.00,Wunderground v.1.15,2013-01-23 01:59:00,
2013-01-22 21:00:00,30.6,9.7,30.34,NW,313,0.0,0.0,41,0.00,,,0.00,Wunderground v.1.15,2013-01-23 02:00:00,
2013-01-22 21:04:00,30.6,9.7,30.34,NW,313,0.0,1.0,41,0.00,,,0.00,Wunderground v.1.15,2013-01-23 02:04:00,
2013-01-22 21:05:00,30.6,10.2,30.34,NW,313,0.0,1.0,42,0.00,,,0.00,Wunderground v.1.15,2013-01-23 02:05:00,
2013-01-22 21:09:00,30.6,10.2,30.34,NW,313,0.0,1.0,42,0.00,,,0.00,Wunderground v.1.15,2013-01-23 02:09:00,
2013-01-22 21:10:00,30.6,9.1,30.34,NW,313,0.0,0.0,40,0.00,,,0.00,Wunderground v.1.15,2013-01-23 02:10:00,
2013-01-22 21:11:00,30.6,9.7,30.34,NW,313,0.0,1.0,41,0.00,,,0.00,Wunderground v.1.15,2013-01-23 02:11:00,
2013-01-22 21:15:00,30.6,9.7,30.34,NW,313,0.0,1.0,41,0.00,,,0.00,Wunderground v.1.15,2013-01-23 02:15:00,
2013-01-22 21:17:00,30.6,9.7,30.34,NW,313,1.0,1.0,41,0.00,,,0.00,Wunderground v.1.15,2013-01-23 02:17:00,
2013-01-22 21:20:00,30.6,9.1,30.34,NW,313,1.0,1.0,40,0.00,,,0.00,Wunderground v.1.15,2013-01-23 02:20:00,
2013-01-22 21:22:00,30.6,9.1,30.35,NW,313,0.0,1.0,40,0.00,,,0.00,Wunderground v.1.15,2013-01-23 02:22:00,
2013-01-22 21:25:00,30.6,9.1,30.34,NW,313,0.0,1.0,40,0.00,,,0.00,Wunderground v.1.15,2013-01-23 02:25:00,
2013-01-22 21:27:00,30.6,9.1,30.34,NW,313,0.0,1.0,40,0.00,,,0.00,Wunderground v.1.15,2013-01-23 02:27:00,
2013-01-22 21:30:00,30.6,9.7,30.34,NW,313,0.0,1.0,41,0.00,,,0.00,Wunderground v.1.15,2013-01-23 02:30:00,
2013-01-22 21:32:00,30.5,9.0,30.34,NW,313,0.0,1.0,40,0.00,,,0.00,Wunderground v.1.15,2013-01-23 02:32:00,
2013-01-22 21:36:00,30.5,9.0,30.34,NW,313,0.0,1.0,40,0.00,,,0.00,Wunderground v.1.15,2013-01-23 02:36:00,
2013-01-22 21:37:00,30.5,9.6,30.34,NW,313,0.0,1.0,41,0.00,,,0.00,Wunderground v.1.15,2013-01-23 02:37:00,
2013-01-22 21:38:00,30.5,9.6,30.34,NW,313,0.0,1.0,41,0.00,,,0.00,Wunderground v.1.15,2013-01-23 02:38:00,
2013-01-22 21:43:00,30.5,9.6,30.34,NW,313,0.0,0.0,41,0.00,,,0.00,Wunderground v.1.15,2013-01-23 02:43:00,
2013-01-22 21:48:00,30.5,10.1,30.35,NW,313,0.0,0.0,42,0.00,,,0.00,Wunderground v.1.15,2013-01-23 02:48:00,
2013-01-22 21:49:00,30.5,10.1,30.35,NW,313,0.0,0.0,42,0.00,,,0.00,Wunderground v.1.15,2013-01-23 02:49:00,
2013-01-22 21:53:00,30.5,9.6,30.35,NW,313,0.0,1.0,41,0.00,,,0.00,Wunderground v.1.15,2013-01-23 02:53:00,
2013-01-22 21:54:00,30.5,9.6,30.35,NW,313,0.0,1.0,41,0.00,,,0.00,Wunderground v.1.15,2013-01-23 02:54:00,
2013-01-22 21:58:00,30.5,10.1,30.34,NW,313,0.0,1.0,42,0.00,,,0.00,Wunderground v.1.15,2013-01-23 02:58:00,
2013-01-22 21:59:00,30.5,9.6,30.34,NW,313,0.0,1.0,41,0.00,,,0.00,Wunderground v.1.15,2013-01-23 02:59:00,
2013-01-22 22:03:00,30.5,10.1,30.34,NW,313,0.0,0.0,42,0.00,,,0.00,Wunderground v.1.15,2013-01-23 03:03:00,
2013-01-22 22:04:00,30.5,10.1,30.34,NW,313,0.0,0.0,42,0.00,,,0.00,Wunderground v.1.15,2013-01-23 03:04:00,
2013-01-22 22:09:00,30.5,10.6,30.34,NW,313,0.0,0.0,43,0.00,,,0.00,Wunderground v.1.15,2013-01-23 03:09:00,
2013-01-22 22:14:00,30.5,10.1,30.34,NW,313,0.0,0.0,42,0.00,,,0.00,Wunderground v.1.15,2013-01-23 03:14:00,
2013-01-22 22:15:00,30.5,10.1,30.34,NW,313,0.0,0.0,42,0.00,,,0.00,Wunderground v.1.15,2013-01-23 03:15:00,
2013-01-22 22:19:00,30.4,9.5,30.34,NW,313,1.0,1.0,41,0.00,,,0.00,Wunderground v.1.15,2013-01-23 03:19:00,
2013-01-22 22:22:00,30.4,8.4,30.34,NW,313,1.0,1.0,39,0.00,,,0.00,Wunderground v.1.15,2013-01-23 03:22:00,
2013-01-22 22:24:00,30.4,8.4,30.34,NW,313,0.0,2.0,39,0.00,,,0.00,Wunderground v.1.15,2013-01-23 03:24:00,
2013-01-22 22:27:00,30.4,8.9,30.34,NW,313,0.0,2.0,40,0.00,,,0.00,Wunderground v.1.15,2013-01-23 03:27:00,
2013-01-22 22:29:00,30.4,9.5,30.34,NW,313,0.0,2.0,41,0.00,,,0.00,Wunderground v.1.15,2013-01-23 03:29:00,
2013-01-22 22:30:00,30.4,10.0,30.34,NW,313,0.0,0.0,42,0.00,,,0.00,Wunderground v.1.15,2013-01-23 03:30:00,
2013-01-22 22:32:00,30.4,8.9,30.34,NW,313,0.0,1.0,40,0.00,,,0.00,Wunderground v.1.15,2013-01-23 03:32:00,
2013-01-22 22:35:00,30.4,8.9,30.34,NW,313,1.0,1.0,40,0.00,,,0.00,Wunderground v.1.15,2013-01-23 03:35:00,
2013-01-22 22:37:00,30.4,8.4,30.34,NW,313,0.0,1.0,39,0.00,,,0.00,Wunderground v.1.15,2013-01-23 03:37:00,
2013-01-22 22:40:00,30.4,8.9,30.34,NW,313,0.0,0.0,40,0.00,,,0.00,Wunderground v.1.15,2013-01-23 03:40:00,
2013-01-22 22:42:00,30.4,8.9,30.34,NW,313,0.0,0.0,40,0.00,,,0.00,Wunderground v.1.15,2013-01-23 03:42:00,
2013-01-22 22:45:00,30.3,8.3,30.34,NW,313,1.0,1.0,39,0.00,,,0.00,Wunderground v.1.15,2013-01-23 03:45:00,
2013-01-22 22:48:00,30.4,8.9,30.34,NW,313,0.0,1.0,40,0.00,,,0.00,Wunderground v.1.15,2013-01-23 03:48:00,
2013-01-22 22:50:00,30.3,8.8,30.34,NW,313,2.0,2.0,40,0.00,,,0.00,Wunderground v.1.15,2013-01-23 03:50:00,
2013-01-22 22:53:00,30.3,7.7,30.34,NW,313,1.0,2.0,38,0.00,,,0.00,Wunderground v.1.15,2013-01-23 03:53:00,
2013-01-22 22:55:00,30.3,8.3,30.34,NW,313,0.0,2.0,39,0.00,,,0.00,Wunderground v.1.15,2013-01-23 03:55:00,
2013-01-22 22:56:00,30.3,8.8,30.34,NW,313,0.0,2.0,40,0.00,,,0.00,Wunderground v.1.15,2013-01-23 03:56:00,
2013-01-22 22:59:00,30.3,8.3,30.34,NW,313,1.0,2.0,39,0.00,,,0.00,Wunderground v.1.15,2013-01-23 03:59:00,
2013-01-22 23:00:00,30.3,8.3,30.34,NW,313,0.0,1.0,39,0.00,,,0.00,Wunderground v.1.15,2013-01-23 04:00:00,
2013-01-22 23:02:00,30.3,7.7,30.34,NW,313,1.0,3.0,38,0.00,,,0.00,Wunderground v.1.15,2013-01-23 04:02:00,
2013-01-22 23:04:00,30.3,8.8,30.34,NW,313,0.0,3.0,40,0.00,,,0.00,Wunderground v.1.15,2013-01-23 04:04:00,
2013-01-22 23:05:00,30.3,8.8,30.35,NW,313,0.0,3.0,40,0.00,,,0.00,Wunderground v.1.15,2013-01-23 04:05:00,
2013-01-22 23:06:00,30.3,8.8,30.35,NW,313,0.0,3.0,40,0.00,,,0.00,Wunderground v.1.15,2013-01-23 04:06:00,
2013-01-22 23:07:00,30.3,9.4,30.34,NW,313,0.0,3.0,41,0.00,,,0.00,Wunderground v.1.15,2013-01-23 04:07:00,
2013-01-22 23:10:00,30.3,8.8,30.35,NW,313,1.0,2.0,40,0.00,,,0.00,Wunderground v.1.15,2013-01-23 04:10:00,
2013-01-22 23:11:00,30.3,8.3,30.34,NW,313,1.0,2.0,39,0.00,,,0.00,Wunderground v.1.15,2013-01-23 04:11:00,
2013-01-22 23:12:00,30.3,8.3,30.35,NW,313,1.0,2.0,39,0.00,,,0.00,Wunderground v.1.15,2013-01-23 04:12:00,
2013-01-22 23:15:00,30.3,8.8,30.35,NW,313,0.0,2.0,40,0.00,,,0.00,Wunderground v.1.15,2013-01-23 04:15:00,
2013-01-22 23:16:00,30.3,8.8,30.35,NW,313,1.0,2.0,40,0.00,,,0.00,Wunderground v.1.15,2013-01-23 04:16:00,
2013-01-22 23:17:00,30.3,8.8,30.35,NW,313,0.0,2.0,40,0.00,,,0.00,Wunderground v.1.15,2013-01-23 04:17:00,
2013-01-22 23:20:00,30.3,8.3,30.35,NW,313,0.0,0.0,39,0.00,,,0.00,Wunderground v.1.15,2013-01-23 04:20:00,
2013-01-22 23:21:00,30.3,8.3,30.35,NW,313,0.0,2.0,39,0.00,,,0.00,Wunderground v.1.15,2013-01-23 04:21:00,
2013-01-22 23:22:00,30.3,8.3,30.35,NW,313,0.0,2.0,39,0.00,,,0.00,Wunderground v.1.15,2013-01-23 04:22:00,
2013-01-22 23:26:00,30.3,8.3,30.35,NW,313,0.0,2.0,39,0.00,,,0.00,Wunderground v.1.15,2013-01-23 04:26:00,
2013-01-22 23:27:00,30.3,8.3,30.35,NW,313,0.0,2.0,39,0.00,,,0.00,Wunderground v.1.15,2013-01-23 04:27:00,
2013-01-22 23:28:00,30.3,8.8,30.35,NW,313,0.0,2.0,40,0.00,,,0.00,Wunderground v.1.15,2013-01-23 04:28:00,
2013-01-22 23:31:00,30.2,8.7,30.35,NW,313,1.0,1.0,40,0.00,,,0.00,Wunderground v.1.15,2013-01-23 04:31:00,
2013-01-22 23:32:00,30.2,8.7,30.35,NW,313,1.0,2.0,40,0.00,,,0.00,Wunderground v.1.15,2013-01-23 04:32:00,
2013-01-22 23:33:00,30.2,8.7,30.35,NW,313,2.0,2.0,40,0.00,,,0.00,Wunderground v.1.15,2013-01-23 04:33:00,
2013-01-22 23:37:00,30.2,8.2,30.35,NW,313,1.0,3.0,39,0.00,,,0.00,Wunderground v.1.15,2013-01-23 04:37:00,
2013-01-22 23:38:00,30.2,7.6,30.36,NW,313,0.0,3.0,38,0.00,,,0.00,Wunderground v.1.15,2013-01-23 04:38:00,
2013-01-22 23:42:00,30.2,8.7,30.36,NW,313,0.0,1.0,40,0.00,,,0.00,Wunderground v.1.15,2013-01-23 04:42:00,
2013-01-22 23:43:00,30.2,8.7,30.36,NW,313,0.0,1.0,40,0.00,,,0.00,Wunderground v.1.15,2013-01-23 04:43:00,
2013-01-22 23:44:00,30.2,8.2,30.36,NW,313,0.0,1.0,39,0.00,,,0.00,Wunderground v.1.15,2013-01-23 04:44:00,
2013-01-22 23:47:00,30.2,8.2,30.35,NW,313,0.0,1.0,39,0.00,,,0.00,Wunderground v.1.15,2013-01-23 04:47:00,
2013-01-22 23:48:00,30.2,8.2,30.36,NW,313,0.0,1.0,39,0.00,,,0.00,Wunderground v.1.15,2013-01-23 04:48:00,
2013-01-22 23:49:00,30.2,8.2,30.36,NW,313,1.0,1.0,39,0.00,,,0.00,Wunderground v.1.15,2013-01-23 04:49:00,
2013-01-22 23:52:00,30.2,7.0,30.36,NW,313,0.0,2.0,37,0.00,,,0.00,Wunderground v.1.15,2013-01-23 04:52:00,
2013-01-22 23:53:00,30.1,6.9,30.36,NW,313,0.0,2.0,37,0.00,,,0.00,Wunderground v.1.15,2013-01-23 04:53:00,
2013-01-22 23:54:00,30.2,8.2,30.36,NW,313,0.0,2.0,39,0.00,,,0.00,Wunderground v.1.15,2013-01-23 04:54:00,
2013-01-22 23:58:00,30.1,8.1,30.36,NW,313,0.0,2.0,39,0.00,,,0.00,Wunderground v.1.15,2013-01-23 04:58:00,